<?xml version="1.0" encoding="UTF-8" standalone="no" ?>
<gpx xmlns="http://www.topografix.com/GPX/1/1" xmlns:xsi="http://www.w3.org/2001/XMLSchema-instance" xsi:schemaLocation="http://www.topografix.com/GPX/1/1 http://www.topografix.com/GPX/1/1/gpx.xsd" version="1.1" creator="VisuGPX - https://www.visugpx.com">
  <metadata>
    <name>Half Winter Trail</name>
    <desc><![CDATA[Magnifique parcours sur les singles de la forêt de l'Océpé, avant un retour par les hameaux de Saint-Pierre de Chartreuse. [Parcours officiel de la course - Balisage uniquement le jour de l'événement] Le parcours n'est pas balisé de manière permanente. Vous pouvez aller le reconnaitre en utilisant l'application Station de Trail et la géolocalisation, ou en important directement le fichier .gpx dans votre montre. ]]></desc>
  </metadata>
  <trk>
    <name><![CDATA[winter-trail-14-km]]></name>
    <desc><![CDATA[winter-trail-14-km]]></desc>
    <trkseg>
      <trkpt lat="45.3413" lon="5.81737">
        <ele>896</ele>
        <time>2018-01-22T18:30:37.000Z</time>
      </trkpt>
      <trkpt lat="45.34102" lon="5.81812">
        <ele>881</ele>
        <time>2018-01-22T18:30:38.000Z</time>
      </trkpt>
      <trkpt lat="45.34099" lon="5.81874">
        <ele>881</ele>
        <time>2018-01-22T18:30:39.000Z</time>
      </trkpt>
      <trkpt lat="45.34087" lon="5.81932">
        <ele>884</ele>
        <time>2018-01-22T18:30:40.000Z</time>
      </trkpt>
      <trkpt lat="45.34064" lon="5.81992">
        <ele>897</ele>
        <time>2018-01-22T18:30:41.000Z</time>
      </trkpt>
      <trkpt lat="45.34025" lon="5.82042">
        <ele>873</ele>
        <time>2018-01-22T18:30:42.000Z</time>
      </trkpt>
      <trkpt lat="45.34002" lon="5.82084">
        <ele>889</ele>
        <time>2018-01-22T18:30:43.000Z</time>
      </trkpt>
      <trkpt lat="45.33992" lon="5.82119">
        <ele>889</ele>
        <time>2018-01-22T18:30:44.000Z</time>
      </trkpt>
      <trkpt lat="45.33972" lon="5.82146">
        <ele>903</ele>
        <time>2018-01-22T18:30:45.000Z</time>
      </trkpt>
      <trkpt lat="45.33956" lon="5.82182">
        <ele>884</ele>
        <time>2018-01-22T18:30:46.000Z</time>
      </trkpt>
      <trkpt lat="45.33936" lon="5.82214">
        <ele>900</ele>
        <time>2018-01-22T18:30:47.000Z</time>
      </trkpt>
      <trkpt lat="45.33911" lon="5.82241">
        <ele>900</ele>
        <time>2018-01-22T18:30:48.000Z</time>
      </trkpt>
      <trkpt lat="45.33884" lon="5.8227">
        <ele>900</ele>
        <time>2018-01-22T18:30:49.000Z</time>
      </trkpt>
      <trkpt lat="45.33869" lon="5.82289">
        <ele>894</ele>
        <time>2018-01-22T18:30:50.000Z</time>
      </trkpt>
      <trkpt lat="45.33849" lon="5.82349">
        <ele>904</ele>
        <time>2018-01-22T18:30:51.000Z</time>
      </trkpt>
      <trkpt lat="45.33838" lon="5.82416">
        <ele>918</ele>
        <time>2018-01-22T18:30:52.000Z</time>
      </trkpt>
      <trkpt lat="45.33838" lon="5.82416">
        <ele>918</ele>
        <time>2018-01-22T18:30:53.000Z</time>
      </trkpt>
      <trkpt lat="45.33838" lon="5.82416">
        <ele>918</ele>
        <time>2018-01-22T18:30:54.000Z</time>
      </trkpt>
      <trkpt lat="45.33819" lon="5.82433">
        <ele>918</ele>
        <time>2018-01-22T18:30:55.000Z</time>
      </trkpt>
      <trkpt lat="45.33819" lon="5.82433">
        <ele>918</ele>
        <time>2018-01-22T18:30:56.000Z</time>
      </trkpt>
      <trkpt lat="45.33819" lon="5.82433">
        <ele>918</ele>
        <time>2018-01-22T18:30:57.000Z</time>
      </trkpt>
      <trkpt lat="45.33804" lon="5.82474">
        <ele>939</ele>
        <time>2018-01-22T18:30:58.000Z</time>
      </trkpt>
      <trkpt lat="45.33804" lon="5.82474">
        <ele>939</ele>
        <time>2018-01-22T18:30:59.000Z</time>
      </trkpt>
      <trkpt lat="45.33804" lon="5.82474">
        <ele>939</ele>
        <time>2018-01-22T18:31:00.000Z</time>
      </trkpt>
      <trkpt lat="45.3378" lon="5.82525">
        <ele>949</ele>
        <time>2018-01-22T18:31:01.000Z</time>
      </trkpt>
      <trkpt lat="45.3378" lon="5.82525">
        <ele>949</ele>
        <time>2018-01-22T18:31:02.000Z</time>
      </trkpt>
      <trkpt lat="45.3378" lon="5.82525">
        <ele>949</ele>
        <time>2018-01-22T18:31:03.000Z</time>
      </trkpt>
      <trkpt lat="45.33772" lon="5.82623">
        <ele>945</ele>
        <time>2018-01-22T18:31:04.000Z</time>
      </trkpt>
      <trkpt lat="45.33772" lon="5.82623">
        <ele>945</ele>
        <time>2018-01-22T18:31:05.000Z</time>
      </trkpt>
      <trkpt lat="45.33772" lon="5.82623">
        <ele>945</ele>
        <time>2018-01-22T18:31:06.000Z</time>
      </trkpt>
      <trkpt lat="45.33754" lon="5.82664">
        <ele>939</ele>
        <time>2018-01-22T18:31:07.000Z</time>
      </trkpt>
      <trkpt lat="45.33754" lon="5.82664">
        <ele>939</ele>
        <time>2018-01-22T18:31:08.000Z</time>
      </trkpt>
      <trkpt lat="45.33754" lon="5.82664">
        <ele>939</ele>
        <time>2018-01-22T18:31:09.000Z</time>
      </trkpt>
      <trkpt lat="45.33749" lon="5.82719">
        <ele>935</ele>
        <time>2018-01-22T18:31:10.000Z</time>
      </trkpt>
      <trkpt lat="45.33749" lon="5.82719">
        <ele>935</ele>
        <time>2018-01-22T18:31:11.000Z</time>
      </trkpt>
      <trkpt lat="45.33749" lon="5.82719">
        <ele>935</ele>
        <time>2018-01-22T18:31:12.000Z</time>
      </trkpt>
      <trkpt lat="45.33745" lon="5.82721">
        <ele>935</ele>
        <time>2018-01-22T18:31:13.000Z</time>
      </trkpt>
      <trkpt lat="45.33745" lon="5.82721">
        <ele>935</ele>
        <time>2018-01-22T18:31:14.000Z</time>
      </trkpt>
      <trkpt lat="45.33745" lon="5.82721">
        <ele>935</ele>
        <time>2018-01-22T18:31:15.000Z</time>
      </trkpt>
      <trkpt lat="45.3374" lon="5.82693">
        <ele>939</ele>
        <time>2018-01-22T18:31:16.000Z</time>
      </trkpt>
      <trkpt lat="45.3374" lon="5.82693">
        <ele>939</ele>
        <time>2018-01-22T18:31:17.000Z</time>
      </trkpt>
      <trkpt lat="45.3374" lon="5.82693">
        <ele>939</ele>
        <time>2018-01-22T18:31:18.000Z</time>
      </trkpt>
      <trkpt lat="45.33737" lon="5.82655">
        <ele>939</ele>
        <time>2018-01-22T18:31:19.000Z</time>
      </trkpt>
      <trkpt lat="45.33737" lon="5.82655">
        <ele>939</ele>
        <time>2018-01-22T18:31:20.000Z</time>
      </trkpt>
      <trkpt lat="45.33737" lon="5.82655">
        <ele>939</ele>
        <time>2018-01-22T18:31:21.000Z</time>
      </trkpt>
      <trkpt lat="45.33751" lon="5.82509">
        <ele>949</ele>
        <time>2018-01-22T18:31:22.000Z</time>
      </trkpt>
      <trkpt lat="45.33751" lon="5.82509">
        <ele>949</ele>
        <time>2018-01-22T18:31:23.000Z</time>
      </trkpt>
      <trkpt lat="45.33751" lon="5.82509">
        <ele>949</ele>
        <time>2018-01-22T18:31:24.000Z</time>
      </trkpt>
      <trkpt lat="45.33751" lon="5.82372">
        <ele>949</ele>
        <time>2018-01-22T18:31:25.000Z</time>
      </trkpt>
      <trkpt lat="45.33751" lon="5.82372">
        <ele>949</ele>
        <time>2018-01-22T18:31:26.000Z</time>
      </trkpt>
      <trkpt lat="45.33751" lon="5.82372">
        <ele>949</ele>
        <time>2018-01-22T18:31:27.000Z</time>
      </trkpt>
      <trkpt lat="45.33747" lon="5.82273">
        <ele>951</ele>
        <time>2018-01-22T18:31:28.000Z</time>
      </trkpt>
      <trkpt lat="45.33747" lon="5.82273">
        <ele>951</ele>
        <time>2018-01-22T18:31:29.000Z</time>
      </trkpt>
      <trkpt lat="45.33747" lon="5.82273">
        <ele>951</ele>
        <time>2018-01-22T18:31:30.000Z</time>
      </trkpt>
      <trkpt lat="45.33772" lon="5.82131">
        <ele>961</ele>
        <time>2018-01-22T18:31:31.000Z</time>
      </trkpt>
      <trkpt lat="45.33772" lon="5.82131">
        <ele>961</ele>
        <time>2018-01-22T18:31:32.000Z</time>
      </trkpt>
      <trkpt lat="45.33772" lon="5.82131">
        <ele>961</ele>
        <time>2018-01-22T18:31:33.000Z</time>
      </trkpt>
      <trkpt lat="45.33768" lon="5.82089">
        <ele>962</ele>
        <time>2018-01-22T18:31:34.000Z</time>
      </trkpt>
      <trkpt lat="45.33768" lon="5.82089">
        <ele>962</ele>
        <time>2018-01-22T18:31:35.000Z</time>
      </trkpt>
      <trkpt lat="45.33768" lon="5.82089">
        <ele>962</ele>
        <time>2018-01-22T18:31:36.000Z</time>
      </trkpt>
      <trkpt lat="45.33743" lon="5.82088">
        <ele>962</ele>
        <time>2018-01-22T18:31:37.000Z</time>
      </trkpt>
      <trkpt lat="45.33743" lon="5.82088">
        <ele>962</ele>
        <time>2018-01-22T18:31:38.000Z</time>
      </trkpt>
      <trkpt lat="45.33743" lon="5.82088">
        <ele>962</ele>
        <time>2018-01-22T18:31:39.000Z</time>
      </trkpt>
      <trkpt lat="45.33725" lon="5.82103">
        <ele>962</ele>
        <time>2018-01-22T18:31:40.000Z</time>
      </trkpt>
      <trkpt lat="45.33725" lon="5.82103">
        <ele>962</ele>
        <time>2018-01-22T18:31:41.000Z</time>
      </trkpt>
      <trkpt lat="45.33725" lon="5.82103">
        <ele>962</ele>
        <time>2018-01-22T18:31:42.000Z</time>
      </trkpt>
      <trkpt lat="45.33695" lon="5.82224">
        <ele>987</ele>
        <time>2018-01-22T18:31:43.000Z</time>
      </trkpt>
      <trkpt lat="45.33695" lon="5.82224">
        <ele>987</ele>
        <time>2018-01-22T18:31:44.000Z</time>
      </trkpt>
      <trkpt lat="45.33695" lon="5.82224">
        <ele>987</ele>
        <time>2018-01-22T18:31:45.000Z</time>
      </trkpt>
      <trkpt lat="45.33688" lon="5.82227">
        <ele>987</ele>
        <time>2018-01-22T18:31:46.000Z</time>
      </trkpt>
      <trkpt lat="45.33688" lon="5.82227">
        <ele>987</ele>
        <time>2018-01-22T18:31:47.000Z</time>
      </trkpt>
      <trkpt lat="45.33688" lon="5.82227">
        <ele>987</ele>
        <time>2018-01-22T18:31:48.000Z</time>
      </trkpt>
      <trkpt lat="45.3366" lon="5.82125">
        <ele>994</ele>
        <time>2018-01-22T18:31:49.000Z</time>
      </trkpt>
      <trkpt lat="45.3366" lon="5.82125">
        <ele>994</ele>
        <time>2018-01-22T18:31:50.000Z</time>
      </trkpt>
      <trkpt lat="45.3366" lon="5.82125">
        <ele>994</ele>
        <time>2018-01-22T18:31:51.000Z</time>
      </trkpt>
      <trkpt lat="45.33609" lon="5.82048">
        <ele>1033</ele>
        <time>2018-01-22T18:31:52.000Z</time>
      </trkpt>
      <trkpt lat="45.33609" lon="5.82048">
        <ele>1033</ele>
        <time>2018-01-22T18:31:53.000Z</time>
      </trkpt>
      <trkpt lat="45.33609" lon="5.82048">
        <ele>1033</ele>
        <time>2018-01-22T18:31:54.000Z</time>
      </trkpt>
      <trkpt lat="45.33589" lon="5.82001">
        <ele>1021</ele>
        <time>2018-01-22T18:31:55.000Z</time>
      </trkpt>
      <trkpt lat="45.33589" lon="5.82001">
        <ele>1021</ele>
        <time>2018-01-22T18:31:56.000Z</time>
      </trkpt>
      <trkpt lat="45.33589" lon="5.82001">
        <ele>1021</ele>
        <time>2018-01-22T18:31:57.000Z</time>
      </trkpt>
      <trkpt lat="45.33582" lon="5.81981">
        <ele>1021</ele>
        <time>2018-01-22T18:31:58.000Z</time>
      </trkpt>
      <trkpt lat="45.33582" lon="5.81981">
        <ele>1021</ele>
        <time>2018-01-22T18:31:59.000Z</time>
      </trkpt>
      <trkpt lat="45.33582" lon="5.81981">
        <ele>1021</ele>
        <time>2018-01-22T18:32:00.000Z</time>
      </trkpt>
      <trkpt lat="45.33587" lon="5.81893">
        <ele>1011</ele>
        <time>2018-01-22T18:32:01.000Z</time>
      </trkpt>
      <trkpt lat="45.33587" lon="5.81893">
        <ele>1011</ele>
        <time>2018-01-22T18:32:02.000Z</time>
      </trkpt>
      <trkpt lat="45.33587" lon="5.81893">
        <ele>1011</ele>
        <time>2018-01-22T18:32:03.000Z</time>
      </trkpt>
      <trkpt lat="45.33567" lon="5.81883">
        <ele>1011</ele>
        <time>2018-01-22T18:32:04.000Z</time>
      </trkpt>
      <trkpt lat="45.33567" lon="5.81883">
        <ele>1011</ele>
        <time>2018-01-22T18:32:05.000Z</time>
      </trkpt>
      <trkpt lat="45.33567" lon="5.81883">
        <ele>1011</ele>
        <time>2018-01-22T18:32:06.000Z</time>
      </trkpt>
      <trkpt lat="45.33531" lon="5.81872">
        <ele>1039</ele>
        <time>2018-01-22T18:32:07.000Z</time>
      </trkpt>
      <trkpt lat="45.33531" lon="5.81872">
        <ele>1039</ele>
        <time>2018-01-22T18:32:08.000Z</time>
      </trkpt>
      <trkpt lat="45.33531" lon="5.81872">
        <ele>1039</ele>
        <time>2018-01-22T18:32:09.000Z</time>
      </trkpt>
      <trkpt lat="45.33521" lon="5.81888">
        <ele>1062</ele>
        <time>2018-01-22T18:32:10.000Z</time>
      </trkpt>
      <trkpt lat="45.33521" lon="5.81888">
        <ele>1062</ele>
        <time>2018-01-22T18:32:11.000Z</time>
      </trkpt>
      <trkpt lat="45.33521" lon="5.81888">
        <ele>1062</ele>
        <time>2018-01-22T18:32:12.000Z</time>
      </trkpt>
      <trkpt lat="45.33511" lon="5.81879">
        <ele>1062</ele>
        <time>2018-01-22T18:32:13.000Z</time>
      </trkpt>
      <trkpt lat="45.33511" lon="5.81879">
        <ele>1062</ele>
        <time>2018-01-22T18:32:14.000Z</time>
      </trkpt>
      <trkpt lat="45.33511" lon="5.81879">
        <ele>1062</ele>
        <time>2018-01-22T18:32:15.000Z</time>
      </trkpt>
      <trkpt lat="45.33506" lon="5.81899">
        <ele>1062</ele>
        <time>2018-01-22T18:32:16.000Z</time>
      </trkpt>
      <trkpt lat="45.33506" lon="5.81899">
        <ele>1062</ele>
        <time>2018-01-22T18:32:17.000Z</time>
      </trkpt>
      <trkpt lat="45.33506" lon="5.81899">
        <ele>1062</ele>
        <time>2018-01-22T18:32:18.000Z</time>
      </trkpt>
      <trkpt lat="45.33495" lon="5.8188">
        <ele>1062</ele>
        <time>2018-01-22T18:32:19.000Z</time>
      </trkpt>
      <trkpt lat="45.33495" lon="5.8188">
        <ele>1062</ele>
        <time>2018-01-22T18:32:20.000Z</time>
      </trkpt>
      <trkpt lat="45.33495" lon="5.8188">
        <ele>1062</ele>
        <time>2018-01-22T18:32:21.000Z</time>
      </trkpt>
      <trkpt lat="45.33488" lon="5.81904">
        <ele>1062</ele>
        <time>2018-01-22T18:32:22.000Z</time>
      </trkpt>
      <trkpt lat="45.33488" lon="5.81904">
        <ele>1062</ele>
        <time>2018-01-22T18:32:23.000Z</time>
      </trkpt>
      <trkpt lat="45.33488" lon="5.81904">
        <ele>1062</ele>
        <time>2018-01-22T18:32:24.000Z</time>
      </trkpt>
      <trkpt lat="45.33473" lon="5.81889">
        <ele>1062</ele>
        <time>2018-01-22T18:32:25.000Z</time>
      </trkpt>
      <trkpt lat="45.33473" lon="5.81889">
        <ele>1062</ele>
        <time>2018-01-22T18:32:26.000Z</time>
      </trkpt>
      <trkpt lat="45.33473" lon="5.81889">
        <ele>1062</ele>
        <time>2018-01-22T18:32:27.000Z</time>
      </trkpt>
      <trkpt lat="45.33463" lon="5.81899">
        <ele>1062</ele>
        <time>2018-01-22T18:32:28.000Z</time>
      </trkpt>
      <trkpt lat="45.33463" lon="5.81899">
        <ele>1062</ele>
        <time>2018-01-22T18:32:29.000Z</time>
      </trkpt>
      <trkpt lat="45.33463" lon="5.81899">
        <ele>1062</ele>
        <time>2018-01-22T18:32:30.000Z</time>
      </trkpt>
      <trkpt lat="45.33414" lon="5.81788">
        <ele>1051</ele>
        <time>2018-01-22T18:32:31.000Z</time>
      </trkpt>
      <trkpt lat="45.33414" lon="5.81788">
        <ele>1051</ele>
        <time>2018-01-22T18:32:32.000Z</time>
      </trkpt>
      <trkpt lat="45.33414" lon="5.81788">
        <ele>1051</ele>
        <time>2018-01-22T18:32:33.000Z</time>
      </trkpt>
      <trkpt lat="45.33412" lon="5.81784">
        <ele>1051</ele>
        <time>2018-01-22T18:32:34.000Z</time>
      </trkpt>
      <trkpt lat="45.33364" lon="5.81735">
        <ele>1089</ele>
        <time>2018-01-22T18:32:35.000Z</time>
      </trkpt>
      <trkpt lat="45.33344" lon="5.81707">
        <ele>1053</ele>
        <time>2018-01-22T18:32:36.000Z</time>
      </trkpt>
      <trkpt lat="45.33308" lon="5.81695">
        <ele>1053</ele>
        <time>2018-01-22T18:32:37.000Z</time>
      </trkpt>
      <trkpt lat="45.3328" lon="5.81663">
        <ele>1080</ele>
        <time>2018-01-22T18:32:38.000Z</time>
      </trkpt>
      <trkpt lat="45.33246" lon="5.81646">
        <ele>1080</ele>
        <time>2018-01-22T18:32:39.000Z</time>
      </trkpt>
      <trkpt lat="45.33209" lon="5.81624">
        <ele>1048</ele>
        <time>2018-01-22T18:32:40.000Z</time>
      </trkpt>
      <trkpt lat="45.33173" lon="5.81616">
        <ele>1063</ele>
        <time>2018-01-22T18:32:41.000Z</time>
      </trkpt>
      <trkpt lat="45.33139" lon="5.81609">
        <ele>1063</ele>
        <time>2018-01-22T18:32:42.000Z</time>
      </trkpt>
      <trkpt lat="45.33114" lon="5.81586">
        <ele>1069</ele>
        <time>2018-01-22T18:32:43.000Z</time>
      </trkpt>
      <trkpt lat="45.33096" lon="5.81601">
        <ele>1069</ele>
        <time>2018-01-22T18:32:44.000Z</time>
      </trkpt>
      <trkpt lat="45.33083" lon="5.81601">
        <ele>1069</ele>
        <time>2018-01-22T18:32:45.000Z</time>
      </trkpt>
      <trkpt lat="45.33083" lon="5.81601">
        <ele>1069</ele>
        <time>2018-01-22T18:32:46.000Z</time>
      </trkpt>
      <trkpt lat="45.33083" lon="5.81601">
        <ele>1069</ele>
        <time>2018-01-22T18:32:47.000Z</time>
      </trkpt>
      <trkpt lat="45.33057" lon="5.8161">
        <ele>1069</ele>
        <time>2018-01-22T18:32:48.000Z</time>
      </trkpt>
      <trkpt lat="45.33057" lon="5.8161">
        <ele>1069</ele>
        <time>2018-01-22T18:32:49.000Z</time>
      </trkpt>
      <trkpt lat="45.33057" lon="5.8161">
        <ele>1069</ele>
        <time>2018-01-22T18:32:50.000Z</time>
      </trkpt>
      <trkpt lat="45.33047" lon="5.81634">
        <ele>1104</ele>
        <time>2018-01-22T18:32:51.000Z</time>
      </trkpt>
      <trkpt lat="45.33047" lon="5.81634">
        <ele>1104</ele>
        <time>2018-01-22T18:32:52.000Z</time>
      </trkpt>
      <trkpt lat="45.33047" lon="5.81634">
        <ele>1104</ele>
        <time>2018-01-22T18:32:53.000Z</time>
      </trkpt>
      <trkpt lat="45.32849" lon="5.81584">
        <ele>1104</ele>
        <time>2018-01-22T18:32:54.000Z</time>
      </trkpt>
      <trkpt lat="45.32849" lon="5.81584">
        <ele>1104</ele>
        <time>2018-01-22T18:32:55.000Z</time>
      </trkpt>
      <trkpt lat="45.32849" lon="5.81584">
        <ele>1104</ele>
        <time>2018-01-22T18:32:56.000Z</time>
      </trkpt>
      <trkpt lat="45.32804" lon="5.81564">
        <ele>1104</ele>
        <time>2018-01-22T18:32:57.000Z</time>
      </trkpt>
      <trkpt lat="45.32771" lon="5.8155">
        <ele>1116</ele>
        <time>2018-01-22T18:32:58.000Z</time>
      </trkpt>
      <trkpt lat="45.32771" lon="5.8155">
        <ele>1116</ele>
        <time>2018-01-22T18:32:59.000Z</time>
      </trkpt>
      <trkpt lat="45.32771" lon="5.8155">
        <ele>1116</ele>
        <time>2018-01-22T18:33:00.000Z</time>
      </trkpt>
      <trkpt lat="45.32669" lon="5.81538">
        <ele>1093</ele>
        <time>2018-01-22T18:33:01.000Z</time>
      </trkpt>
      <trkpt lat="45.32669" lon="5.81538">
        <ele>1093</ele>
        <time>2018-01-22T18:33:02.000Z</time>
      </trkpt>
      <trkpt lat="45.32669" lon="5.81538">
        <ele>1093</ele>
        <time>2018-01-22T18:33:03.000Z</time>
      </trkpt>
      <trkpt lat="45.32641" lon="5.81557">
        <ele>1122</ele>
        <time>2018-01-22T18:33:04.000Z</time>
      </trkpt>
      <trkpt lat="45.32641" lon="5.81557">
        <ele>1122</ele>
        <time>2018-01-22T18:33:05.000Z</time>
      </trkpt>
      <trkpt lat="45.32641" lon="5.81557">
        <ele>1122</ele>
        <time>2018-01-22T18:33:06.000Z</time>
      </trkpt>
      <trkpt lat="45.32601" lon="5.81559">
        <ele>1123</ele>
        <time>2018-01-22T18:33:07.000Z</time>
      </trkpt>
      <trkpt lat="45.32601" lon="5.81559">
        <ele>1123</ele>
        <time>2018-01-22T18:33:08.000Z</time>
      </trkpt>
      <trkpt lat="45.32601" lon="5.81559">
        <ele>1123</ele>
        <time>2018-01-22T18:33:09.000Z</time>
      </trkpt>
      <trkpt lat="45.3249" lon="5.81616">
        <ele>1115</ele>
        <time>2018-01-22T18:33:10.000Z</time>
      </trkpt>
      <trkpt lat="45.3249" lon="5.81616">
        <ele>1115</ele>
        <time>2018-01-22T18:33:11.000Z</time>
      </trkpt>
      <trkpt lat="45.3249" lon="5.81616">
        <ele>1115</ele>
        <time>2018-01-22T18:33:12.000Z</time>
      </trkpt>
      <trkpt lat="45.32439" lon="5.81595">
        <ele>1114</ele>
        <time>2018-01-22T18:33:13.000Z</time>
      </trkpt>
      <trkpt lat="45.32439" lon="5.81595">
        <ele>1114</ele>
        <time>2018-01-22T18:33:14.000Z</time>
      </trkpt>
      <trkpt lat="45.32439" lon="5.81595">
        <ele>1114</ele>
        <time>2018-01-22T18:33:15.000Z</time>
      </trkpt>
      <trkpt lat="45.32398" lon="5.8156">
        <ele>1114</ele>
        <time>2018-01-22T18:33:16.000Z</time>
      </trkpt>
      <trkpt lat="45.32398" lon="5.8156">
        <ele>1114</ele>
        <time>2018-01-22T18:33:17.000Z</time>
      </trkpt>
      <trkpt lat="45.32398" lon="5.8156">
        <ele>1114</ele>
        <time>2018-01-22T18:33:18.000Z</time>
      </trkpt>
      <trkpt lat="45.32298" lon="5.81547">
        <ele>1119</ele>
        <time>2018-01-22T18:33:19.000Z</time>
      </trkpt>
      <trkpt lat="45.32298" lon="5.81547">
        <ele>1119</ele>
        <time>2018-01-22T18:33:20.000Z</time>
      </trkpt>
      <trkpt lat="45.32298" lon="5.81547">
        <ele>1119</ele>
        <time>2018-01-22T18:33:21.000Z</time>
      </trkpt>
      <trkpt lat="45.32244" lon="5.81563">
        <ele>1113</ele>
        <time>2018-01-22T18:33:22.000Z</time>
      </trkpt>
      <trkpt lat="45.32244" lon="5.81563">
        <ele>1113</ele>
        <time>2018-01-22T18:33:23.000Z</time>
      </trkpt>
      <trkpt lat="45.32244" lon="5.81563">
        <ele>1113</ele>
        <time>2018-01-22T18:33:24.000Z</time>
      </trkpt>
      <trkpt lat="45.32251" lon="5.81528">
        <ele>1085</ele>
        <time>2018-01-22T18:33:25.000Z</time>
      </trkpt>
      <trkpt lat="45.32251" lon="5.81528">
        <ele>1085</ele>
        <time>2018-01-22T18:33:26.000Z</time>
      </trkpt>
      <trkpt lat="45.32251" lon="5.81528">
        <ele>1085</ele>
        <time>2018-01-22T18:33:27.000Z</time>
      </trkpt>
      <trkpt lat="45.32239" lon="5.81527">
        <ele>1085</ele>
        <time>2018-01-22T18:33:28.000Z</time>
      </trkpt>
      <trkpt lat="45.32208" lon="5.81546">
        <ele>1110</ele>
        <time>2018-01-22T18:33:29.000Z</time>
      </trkpt>
      <trkpt lat="45.322" lon="5.81545">
        <ele>1110</ele>
        <time>2018-01-22T18:33:30.000Z</time>
      </trkpt>
      <trkpt lat="45.322" lon="5.81545">
        <ele>1110</ele>
        <time>2018-01-22T18:33:31.000Z</time>
      </trkpt>
      <trkpt lat="45.322" lon="5.81545">
        <ele>1110</ele>
        <time>2018-01-22T18:33:32.000Z</time>
      </trkpt>
      <trkpt lat="45.32193" lon="5.81533">
        <ele>1080</ele>
        <time>2018-01-22T18:33:33.000Z</time>
      </trkpt>
      <trkpt lat="45.32193" lon="5.81533">
        <ele>1080</ele>
        <time>2018-01-22T18:33:34.000Z</time>
      </trkpt>
      <trkpt lat="45.32193" lon="5.81533">
        <ele>1080</ele>
        <time>2018-01-22T18:33:35.000Z</time>
      </trkpt>
      <trkpt lat="45.32205" lon="5.81518">
        <ele>1080</ele>
        <time>2018-01-22T18:33:36.000Z</time>
      </trkpt>
      <trkpt lat="45.32205" lon="5.81518">
        <ele>1080</ele>
        <time>2018-01-22T18:33:37.000Z</time>
      </trkpt>
      <trkpt lat="45.32205" lon="5.81518">
        <ele>1080</ele>
        <time>2018-01-22T18:33:38.000Z</time>
      </trkpt>
      <trkpt lat="45.32212" lon="5.81489">
        <ele>1085</ele>
        <time>2018-01-22T18:33:39.000Z</time>
      </trkpt>
      <trkpt lat="45.32212" lon="5.81489">
        <ele>1085</ele>
        <time>2018-01-22T18:33:40.000Z</time>
      </trkpt>
      <trkpt lat="45.32212" lon="5.81489">
        <ele>1085</ele>
        <time>2018-01-22T18:33:41.000Z</time>
      </trkpt>
      <trkpt lat="45.32184" lon="5.81477">
        <ele>1080</ele>
        <time>2018-01-22T18:33:42.000Z</time>
      </trkpt>
      <trkpt lat="45.32184" lon="5.81477">
        <ele>1080</ele>
        <time>2018-01-22T18:33:43.000Z</time>
      </trkpt>
      <trkpt lat="45.32184" lon="5.81477">
        <ele>1080</ele>
        <time>2018-01-22T18:33:44.000Z</time>
      </trkpt>
      <trkpt lat="45.32183" lon="5.81477">
        <ele>1080</ele>
        <time>2018-01-22T18:33:45.000Z</time>
      </trkpt>
      <trkpt lat="45.32183" lon="5.81477">
        <ele>1080</ele>
        <time>2018-01-22T18:33:46.000Z</time>
      </trkpt>
      <trkpt lat="45.32183" lon="5.81477">
        <ele>1080</ele>
        <time>2018-01-22T18:33:47.000Z</time>
      </trkpt>
      <trkpt lat="45.32101" lon="5.81453">
        <ele>1055</ele>
        <time>2018-01-22T18:33:48.000Z</time>
      </trkpt>
      <trkpt lat="45.32101" lon="5.81453">
        <ele>1055</ele>
        <time>2018-01-22T18:33:49.000Z</time>
      </trkpt>
      <trkpt lat="45.32101" lon="5.81453">
        <ele>1055</ele>
        <time>2018-01-22T18:33:50.000Z</time>
      </trkpt>
      <trkpt lat="45.31901" lon="5.81362">
        <ele>1049</ele>
        <time>2018-01-22T18:33:51.000Z</time>
      </trkpt>
      <trkpt lat="45.31901" lon="5.81362">
        <ele>1049</ele>
        <time>2018-01-22T18:33:52.000Z</time>
      </trkpt>
      <trkpt lat="45.31833" lon="5.81343">
        <ele>1052</ele>
        <time>2018-01-22T18:33:53.000Z</time>
      </trkpt>
      <trkpt lat="45.31833" lon="5.81343">
        <ele>1052</ele>
        <time>2018-01-22T18:33:54.000Z</time>
      </trkpt>
      <trkpt lat="45.31776" lon="5.81339">
        <ele>1047</ele>
        <time>2018-01-22T18:33:55.000Z</time>
      </trkpt>
      <trkpt lat="45.31776" lon="5.81339">
        <ele>1047</ele>
        <time>2018-01-22T18:33:56.000Z</time>
      </trkpt>
      <trkpt lat="45.31705" lon="5.81327">
        <ele>1041</ele>
        <time>2018-01-22T18:33:57.000Z</time>
      </trkpt>
      <trkpt lat="45.31705" lon="5.81327">
        <ele>1041</ele>
        <time>2018-01-22T18:33:58.000Z</time>
      </trkpt>
      <trkpt lat="45.3167" lon="5.81288">
        <ele>1023</ele>
        <time>2018-01-22T18:33:59.000Z</time>
      </trkpt>
      <trkpt lat="45.3167" lon="5.81288">
        <ele>1023</ele>
        <time>2018-01-22T18:34:00.000Z</time>
      </trkpt>
      <trkpt lat="45.31647" lon="5.81251">
        <ele>1023</ele>
        <time>2018-01-22T18:34:01.000Z</time>
      </trkpt>
      <trkpt lat="45.31647" lon="5.81251">
        <ele>1023</ele>
        <time>2018-01-22T18:34:02.000Z</time>
      </trkpt>
      <trkpt lat="45.31648" lon="5.81224">
        <ele>1023</ele>
        <time>2018-01-22T18:34:03.000Z</time>
      </trkpt>
      <trkpt lat="45.31648" lon="5.81224">
        <ele>1023</ele>
        <time>2018-01-22T18:34:04.000Z</time>
      </trkpt>
      <trkpt lat="45.3164" lon="5.81209">
        <ele>1023</ele>
        <time>2018-01-22T18:34:05.000Z</time>
      </trkpt>
      <trkpt lat="45.3164" lon="5.81209">
        <ele>1023</ele>
        <time>2018-01-22T18:34:06.000Z</time>
      </trkpt>
      <trkpt lat="45.31625" lon="5.812">
        <ele>1010</ele>
        <time>2018-01-22T18:34:07.000Z</time>
      </trkpt>
      <trkpt lat="45.31625" lon="5.812">
        <ele>1010</ele>
        <time>2018-01-22T18:34:08.000Z</time>
      </trkpt>
      <trkpt lat="45.31612" lon="5.81182">
        <ele>1010</ele>
        <time>2018-01-22T18:34:09.000Z</time>
      </trkpt>
      <trkpt lat="45.31612" lon="5.81182">
        <ele>1010</ele>
        <time>2018-01-22T18:34:10.000Z</time>
      </trkpt>
      <trkpt lat="45.31594" lon="5.81176">
        <ele>1010</ele>
        <time>2018-01-22T18:34:11.000Z</time>
      </trkpt>
      <trkpt lat="45.31594" lon="5.81176">
        <ele>1010</ele>
        <time>2018-01-22T18:34:12.000Z</time>
      </trkpt>
      <trkpt lat="45.31582" lon="5.81137">
        <ele>1010</ele>
        <time>2018-01-22T18:34:13.000Z</time>
      </trkpt>
      <trkpt lat="45.31582" lon="5.81137">
        <ele>1010</ele>
        <time>2018-01-22T18:34:14.000Z</time>
      </trkpt>
      <trkpt lat="45.31591" lon="5.81117">
        <ele>992</ele>
        <time>2018-01-22T18:34:15.000Z</time>
      </trkpt>
      <trkpt lat="45.31591" lon="5.81117">
        <ele>992</ele>
        <time>2018-01-22T18:34:16.000Z</time>
      </trkpt>
      <trkpt lat="45.31582" lon="5.81082">
        <ele>992</ele>
        <time>2018-01-22T18:34:17.000Z</time>
      </trkpt>
      <trkpt lat="45.31582" lon="5.81082">
        <ele>992</ele>
        <time>2018-01-22T18:34:18.000Z</time>
      </trkpt>
      <trkpt lat="45.31597" lon="5.81058">
        <ele>992</ele>
        <time>2018-01-22T18:34:19.000Z</time>
      </trkpt>
      <trkpt lat="45.31597" lon="5.81058">
        <ele>992</ele>
        <time>2018-01-22T18:34:20.000Z</time>
      </trkpt>
      <trkpt lat="45.31596" lon="5.81033">
        <ele>968</ele>
        <time>2018-01-22T18:34:21.000Z</time>
      </trkpt>
      <trkpt lat="45.31596" lon="5.81033">
        <ele>968</ele>
        <time>2018-01-22T18:34:22.000Z</time>
      </trkpt>
      <trkpt lat="45.31625" lon="5.81007">
        <ele>968</ele>
        <time>2018-01-22T18:34:23.000Z</time>
      </trkpt>
      <trkpt lat="45.31625" lon="5.81007">
        <ele>968</ele>
        <time>2018-01-22T18:34:24.000Z</time>
      </trkpt>
      <trkpt lat="45.31701" lon="5.81006">
        <ele>964</ele>
        <time>2018-01-22T18:34:25.000Z</time>
      </trkpt>
      <trkpt lat="45.31701" lon="5.81006">
        <ele>964</ele>
        <time>2018-01-22T18:34:26.000Z</time>
      </trkpt>
      <trkpt lat="45.31683" lon="5.80964">
        <ele>964</ele>
        <time>2018-01-22T18:34:27.000Z</time>
      </trkpt>
      <trkpt lat="45.31683" lon="5.80964">
        <ele>964</ele>
        <time>2018-01-22T18:34:28.000Z</time>
      </trkpt>
      <trkpt lat="45.31647" lon="5.80931">
        <ele>928</ele>
        <time>2018-01-22T18:34:29.000Z</time>
      </trkpt>
      <trkpt lat="45.31647" lon="5.80931">
        <ele>928</ele>
        <time>2018-01-22T18:34:30.000Z</time>
      </trkpt>
      <trkpt lat="45.31579" lon="5.80915">
        <ele>932</ele>
        <time>2018-01-22T18:34:31.000Z</time>
      </trkpt>
      <trkpt lat="45.31579" lon="5.80915">
        <ele>932</ele>
        <time>2018-01-22T18:34:32.000Z</time>
      </trkpt>
      <trkpt lat="45.31578" lon="5.80881">
        <ele>932</ele>
        <time>2018-01-22T18:34:33.000Z</time>
      </trkpt>
      <trkpt lat="45.31578" lon="5.80881">
        <ele>932</ele>
        <time>2018-01-22T18:34:34.000Z</time>
      </trkpt>
      <trkpt lat="45.3158" lon="5.80862">
        <ele>916</ele>
        <time>2018-01-22T18:34:35.000Z</time>
      </trkpt>
      <trkpt lat="45.3158" lon="5.80862">
        <ele>916</ele>
        <time>2018-01-22T18:34:36.000Z</time>
      </trkpt>
      <trkpt lat="45.31569" lon="5.80842">
        <ele>916</ele>
        <time>2018-01-22T18:34:37.000Z</time>
      </trkpt>
      <trkpt lat="45.31569" lon="5.80842">
        <ele>916</ele>
        <time>2018-01-22T18:34:38.000Z</time>
      </trkpt>
      <trkpt lat="45.31552" lon="5.80824">
        <ele>916</ele>
        <time>2018-01-22T18:34:39.000Z</time>
      </trkpt>
      <trkpt lat="45.31552" lon="5.80824">
        <ele>916</ele>
        <time>2018-01-22T18:34:40.000Z</time>
      </trkpt>
      <trkpt lat="45.31536" lon="5.80819">
        <ele>920</ele>
        <time>2018-01-22T18:34:41.000Z</time>
      </trkpt>
      <trkpt lat="45.31536" lon="5.80819">
        <ele>920</ele>
        <time>2018-01-22T18:34:42.000Z</time>
      </trkpt>
      <trkpt lat="45.31513" lon="5.80821">
        <ele>920</ele>
        <time>2018-01-22T18:34:43.000Z</time>
      </trkpt>
      <trkpt lat="45.31513" lon="5.80821">
        <ele>920</ele>
        <time>2018-01-22T18:34:44.000Z</time>
      </trkpt>
      <trkpt lat="45.31489" lon="5.80823">
        <ele>920</ele>
        <time>2018-01-22T18:34:45.000Z</time>
      </trkpt>
      <trkpt lat="45.31489" lon="5.80823">
        <ele>920</ele>
        <time>2018-01-22T18:34:46.000Z</time>
      </trkpt>
      <trkpt lat="45.31474" lon="5.80816">
        <ele>920</ele>
        <time>2018-01-22T18:34:47.000Z</time>
      </trkpt>
      <trkpt lat="45.31474" lon="5.80816">
        <ele>920</ele>
        <time>2018-01-22T18:34:48.000Z</time>
      </trkpt>
      <trkpt lat="45.31466" lon="5.80788">
        <ele>921</ele>
        <time>2018-01-22T18:34:49.000Z</time>
      </trkpt>
      <trkpt lat="45.31466" lon="5.80788">
        <ele>921</ele>
        <time>2018-01-22T18:34:50.000Z</time>
      </trkpt>
      <trkpt lat="45.31466" lon="5.80746">
        <ele>921</ele>
        <time>2018-01-22T18:34:51.000Z</time>
      </trkpt>
      <trkpt lat="45.31466" lon="5.80746">
        <ele>921</ele>
        <time>2018-01-22T18:34:52.000Z</time>
      </trkpt>
      <trkpt lat="45.31471" lon="5.80713">
        <ele>921</ele>
        <time>2018-01-22T18:34:53.000Z</time>
      </trkpt>
      <trkpt lat="45.31471" lon="5.80713">
        <ele>921</ele>
        <time>2018-01-22T18:34:54.000Z</time>
      </trkpt>
      <trkpt lat="45.31479" lon="5.8069">
        <ele>925</ele>
        <time>2018-01-22T18:34:55.000Z</time>
      </trkpt>
      <trkpt lat="45.31479" lon="5.8069">
        <ele>925</ele>
        <time>2018-01-22T18:34:56.000Z</time>
      </trkpt>
      <trkpt lat="45.31483" lon="5.8067">
        <ele>925</ele>
        <time>2018-01-22T18:34:57.000Z</time>
      </trkpt>
      <trkpt lat="45.31483" lon="5.8067">
        <ele>925</ele>
        <time>2018-01-22T18:34:58.000Z</time>
      </trkpt>
      <trkpt lat="45.31478" lon="5.80641">
        <ele>925</ele>
        <time>2018-01-22T18:34:59.000Z</time>
      </trkpt>
      <trkpt lat="45.31478" lon="5.80641">
        <ele>925</ele>
        <time>2018-01-22T18:35:00.000Z</time>
      </trkpt>
      <trkpt lat="45.31474" lon="5.80611">
        <ele>924</ele>
        <time>2018-01-22T18:35:01.000Z</time>
      </trkpt>
      <trkpt lat="45.31474" lon="5.80611">
        <ele>924</ele>
        <time>2018-01-22T18:35:02.000Z</time>
      </trkpt>
      <trkpt lat="45.31493" lon="5.80599">
        <ele>924</ele>
        <time>2018-01-22T18:35:03.000Z</time>
      </trkpt>
      <trkpt lat="45.31493" lon="5.80599">
        <ele>924</ele>
        <time>2018-01-22T18:35:04.000Z</time>
      </trkpt>
      <trkpt lat="45.31513" lon="5.80596">
        <ele>924</ele>
        <time>2018-01-22T18:35:05.000Z</time>
      </trkpt>
      <trkpt lat="45.31513" lon="5.80596">
        <ele>924</ele>
        <time>2018-01-22T18:35:06.000Z</time>
      </trkpt>
      <trkpt lat="45.31525" lon="5.8059">
        <ele>924</ele>
        <time>2018-01-22T18:35:07.000Z</time>
      </trkpt>
      <trkpt lat="45.31525" lon="5.8059">
        <ele>924</ele>
        <time>2018-01-22T18:35:08.000Z</time>
      </trkpt>
      <trkpt lat="45.31531" lon="5.80579">
        <ele>924</ele>
        <time>2018-01-22T18:35:09.000Z</time>
      </trkpt>
      <trkpt lat="45.31531" lon="5.80579">
        <ele>924</ele>
        <time>2018-01-22T18:35:10.000Z</time>
      </trkpt>
      <trkpt lat="45.31533" lon="5.80574">
        <ele>924</ele>
        <time>2018-01-22T18:35:11.000Z</time>
      </trkpt>
      <trkpt lat="45.31533" lon="5.80574">
        <ele>924</ele>
        <time>2018-01-22T18:35:12.000Z</time>
      </trkpt>
      <trkpt lat="45.31481" lon="5.80534">
        <ele>923</ele>
        <time>2018-01-22T18:35:13.000Z</time>
      </trkpt>
      <trkpt lat="45.31481" lon="5.80534">
        <ele>923</ele>
        <time>2018-01-22T18:35:14.000Z</time>
      </trkpt>
      <trkpt lat="45.31482" lon="5.80521">
        <ele>923</ele>
        <time>2018-01-22T18:35:15.000Z</time>
      </trkpt>
      <trkpt lat="45.31482" lon="5.80521">
        <ele>923</ele>
        <time>2018-01-22T18:35:16.000Z</time>
      </trkpt>
      <trkpt lat="45.31463" lon="5.80467">
        <ele>923</ele>
        <time>2018-01-22T18:35:17.000Z</time>
      </trkpt>
      <trkpt lat="45.31463" lon="5.80467">
        <ele>923</ele>
        <time>2018-01-22T18:35:18.000Z</time>
      </trkpt>
      <trkpt lat="45.31463" lon="5.80427">
        <ele>939</ele>
        <time>2018-01-22T18:35:19.000Z</time>
      </trkpt>
      <trkpt lat="45.31463" lon="5.80427">
        <ele>939</ele>
        <time>2018-01-22T18:35:20.000Z</time>
      </trkpt>
      <trkpt lat="45.31465" lon="5.80415">
        <ele>939</ele>
        <time>2018-01-22T18:35:21.000Z</time>
      </trkpt>
      <trkpt lat="45.31465" lon="5.80415">
        <ele>939</ele>
        <time>2018-01-22T18:35:22.000Z</time>
      </trkpt>
      <trkpt lat="45.31478" lon="5.80404">
        <ele>939</ele>
        <time>2018-01-22T18:35:23.000Z</time>
      </trkpt>
      <trkpt lat="45.31478" lon="5.80404">
        <ele>939</ele>
        <time>2018-01-22T18:35:24.000Z</time>
      </trkpt>
      <trkpt lat="45.31514" lon="5.80398">
        <ele>939</ele>
        <time>2018-01-22T18:35:25.000Z</time>
      </trkpt>
      <trkpt lat="45.31514" lon="5.80398">
        <ele>939</ele>
        <time>2018-01-22T18:35:26.000Z</time>
      </trkpt>
      <trkpt lat="45.31531" lon="5.80381">
        <ele>939</ele>
        <time>2018-01-22T18:35:27.000Z</time>
      </trkpt>
      <trkpt lat="45.31531" lon="5.80381">
        <ele>939</ele>
        <time>2018-01-22T18:35:28.000Z</time>
      </trkpt>
      <trkpt lat="45.31538" lon="5.80364">
        <ele>960</ele>
        <time>2018-01-22T18:35:29.000Z</time>
      </trkpt>
      <trkpt lat="45.31538" lon="5.80364">
        <ele>960</ele>
        <time>2018-01-22T18:35:30.000Z</time>
      </trkpt>
      <trkpt lat="45.31537" lon="5.8035">
        <ele>960</ele>
        <time>2018-01-22T18:35:31.000Z</time>
      </trkpt>
      <trkpt lat="45.31537" lon="5.8035">
        <ele>960</ele>
        <time>2018-01-22T18:35:32.000Z</time>
      </trkpt>
      <trkpt lat="45.31531" lon="5.80338">
        <ele>960</ele>
        <time>2018-01-22T18:35:33.000Z</time>
      </trkpt>
      <trkpt lat="45.31531" lon="5.80338">
        <ele>960</ele>
        <time>2018-01-22T18:35:34.000Z</time>
      </trkpt>
      <trkpt lat="45.31524" lon="5.8033">
        <ele>960</ele>
        <time>2018-01-22T18:35:35.000Z</time>
      </trkpt>
      <trkpt lat="45.31524" lon="5.8033">
        <ele>960</ele>
        <time>2018-01-22T18:35:36.000Z</time>
      </trkpt>
      <trkpt lat="45.31521" lon="5.80322">
        <ele>960</ele>
        <time>2018-01-22T18:35:37.000Z</time>
      </trkpt>
      <trkpt lat="45.31521" lon="5.80322">
        <ele>960</ele>
        <time>2018-01-22T18:35:38.000Z</time>
      </trkpt>
      <trkpt lat="45.31528" lon="5.80301">
        <ele>960</ele>
        <time>2018-01-22T18:35:39.000Z</time>
      </trkpt>
      <trkpt lat="45.31528" lon="5.80301">
        <ele>960</ele>
        <time>2018-01-22T18:35:40.000Z</time>
      </trkpt>
      <trkpt lat="45.31539" lon="5.80228">
        <ele>962</ele>
        <time>2018-01-22T18:35:41.000Z</time>
      </trkpt>
      <trkpt lat="45.31539" lon="5.80228">
        <ele>962</ele>
        <time>2018-01-22T18:35:42.000Z</time>
      </trkpt>
      <trkpt lat="45.31575" lon="5.80089">
        <ele>964</ele>
        <time>2018-01-22T18:35:43.000Z</time>
      </trkpt>
      <trkpt lat="45.31575" lon="5.80089">
        <ele>964</ele>
        <time>2018-01-22T18:35:44.000Z</time>
      </trkpt>
      <trkpt lat="45.31654" lon="5.80146">
        <ele>952</ele>
        <time>2018-01-22T18:35:45.000Z</time>
      </trkpt>
      <trkpt lat="45.31654" lon="5.80146">
        <ele>952</ele>
        <time>2018-01-22T18:35:46.000Z</time>
      </trkpt>
      <trkpt lat="45.31652" lon="5.80229">
        <ele>950</ele>
        <time>2018-01-22T18:35:47.000Z</time>
      </trkpt>
      <trkpt lat="45.31652" lon="5.80229">
        <ele>950</ele>
        <time>2018-01-22T18:35:48.000Z</time>
      </trkpt>
      <trkpt lat="45.31665" lon="5.80268">
        <ele>950</ele>
        <time>2018-01-22T18:35:49.000Z</time>
      </trkpt>
      <trkpt lat="45.31665" lon="5.80268">
        <ele>950</ele>
        <time>2018-01-22T18:35:50.000Z</time>
      </trkpt>
      <trkpt lat="45.31682" lon="5.80275">
        <ele>950</ele>
        <time>2018-01-22T18:35:51.000Z</time>
      </trkpt>
      <trkpt lat="45.31682" lon="5.80275">
        <ele>950</ele>
        <time>2018-01-22T18:35:52.000Z</time>
      </trkpt>
      <trkpt lat="45.31728" lon="5.80273">
        <ele>946</ele>
        <time>2018-01-22T18:35:53.000Z</time>
      </trkpt>
      <trkpt lat="45.31728" lon="5.80273">
        <ele>946</ele>
        <time>2018-01-22T18:35:54.000Z</time>
      </trkpt>
      <trkpt lat="45.31756" lon="5.80286">
        <ele>946</ele>
        <time>2018-01-22T18:35:55.000Z</time>
      </trkpt>
      <trkpt lat="45.31756" lon="5.80286">
        <ele>946</ele>
        <time>2018-01-22T18:35:56.000Z</time>
      </trkpt>
      <trkpt lat="45.31756" lon="5.80286">
        <ele>946</ele>
        <time>2018-01-22T18:35:57.000Z</time>
      </trkpt>
      <trkpt lat="45.31765" lon="5.80271">
        <ele>946</ele>
        <time>2018-01-22T18:35:58.000Z</time>
      </trkpt>
      <trkpt lat="45.31765" lon="5.80271">
        <ele>946</ele>
        <time>2018-01-22T18:35:59.000Z</time>
      </trkpt>
      <trkpt lat="45.31765" lon="5.80271">
        <ele>946</ele>
        <time>2018-01-22T18:36:00.000Z</time>
      </trkpt>
      <trkpt lat="45.31841" lon="5.80274">
        <ele>940</ele>
        <time>2018-01-22T18:36:01.000Z</time>
      </trkpt>
      <trkpt lat="45.31841" lon="5.80274">
        <ele>940</ele>
        <time>2018-01-22T18:36:02.000Z</time>
      </trkpt>
      <trkpt lat="45.31841" lon="5.80274">
        <ele>940</ele>
        <time>2018-01-22T18:36:03.000Z</time>
      </trkpt>
      <trkpt lat="45.31901" lon="5.80271">
        <ele>935</ele>
        <time>2018-01-22T18:36:04.000Z</time>
      </trkpt>
      <trkpt lat="45.31901" lon="5.80271">
        <ele>935</ele>
        <time>2018-01-22T18:36:05.000Z</time>
      </trkpt>
      <trkpt lat="45.31901" lon="5.80271">
        <ele>935</ele>
        <time>2018-01-22T18:36:06.000Z</time>
      </trkpt>
      <trkpt lat="45.31982" lon="5.80253">
        <ele>939</ele>
        <time>2018-01-22T18:36:07.000Z</time>
      </trkpt>
      <trkpt lat="45.31982" lon="5.80253">
        <ele>939</ele>
        <time>2018-01-22T18:36:08.000Z</time>
      </trkpt>
      <trkpt lat="45.31982" lon="5.80253">
        <ele>939</ele>
        <time>2018-01-22T18:36:09.000Z</time>
      </trkpt>
      <trkpt lat="45.31985" lon="5.80253">
        <ele>939</ele>
        <time>2018-01-22T18:36:10.000Z</time>
      </trkpt>
      <trkpt lat="45.32023" lon="5.80247">
        <ele>939</ele>
        <time>2018-01-22T18:36:11.000Z</time>
      </trkpt>
      <trkpt lat="45.32081" lon="5.80245">
        <ele>935</ele>
        <time>2018-01-22T18:36:12.000Z</time>
      </trkpt>
      <trkpt lat="45.32109" lon="5.8025">
        <ele>935</ele>
        <time>2018-01-22T18:36:13.000Z</time>
      </trkpt>
      <trkpt lat="45.32145" lon="5.80263">
        <ele>920</ele>
        <time>2018-01-22T18:36:14.000Z</time>
      </trkpt>
      <trkpt lat="45.32183" lon="5.80269">
        <ele>920</ele>
        <time>2018-01-22T18:36:15.000Z</time>
      </trkpt>
      <trkpt lat="45.32213" lon="5.80273">
        <ele>907</ele>
        <time>2018-01-22T18:36:16.000Z</time>
      </trkpt>
      <trkpt lat="45.32222" lon="5.80266">
        <ele>907</ele>
        <time>2018-01-22T18:36:17.000Z</time>
      </trkpt>
      <trkpt lat="45.32216" lon="5.80259">
        <ele>907</ele>
        <time>2018-01-22T18:36:18.000Z</time>
      </trkpt>
      <trkpt lat="45.32208" lon="5.80252">
        <ele>920</ele>
        <time>2018-01-22T18:36:19.000Z</time>
      </trkpt>
      <trkpt lat="45.32202" lon="5.8024">
        <ele>920</ele>
        <time>2018-01-22T18:36:20.000Z</time>
      </trkpt>
      <trkpt lat="45.32202" lon="5.8024">
        <ele>920</ele>
        <time>2018-01-22T18:36:21.000Z</time>
      </trkpt>
      <trkpt lat="45.32202" lon="5.8024">
        <ele>920</ele>
        <time>2018-01-22T18:36:22.000Z</time>
      </trkpt>
      <trkpt lat="45.32193" lon="5.80226">
        <ele>920</ele>
        <time>2018-01-22T18:36:23.000Z</time>
      </trkpt>
      <trkpt lat="45.32184" lon="5.80207">
        <ele>906</ele>
        <time>2018-01-22T18:36:24.000Z</time>
      </trkpt>
      <trkpt lat="45.32175" lon="5.80189">
        <ele>906</ele>
        <time>2018-01-22T18:36:25.000Z</time>
      </trkpt>
      <trkpt lat="45.32167" lon="5.80174">
        <ele>906</ele>
        <time>2018-01-22T18:36:26.000Z</time>
      </trkpt>
      <trkpt lat="45.32153" lon="5.8016">
        <ele>906</ele>
        <time>2018-01-22T18:36:27.000Z</time>
      </trkpt>
      <trkpt lat="45.32141" lon="5.80143">
        <ele>906</ele>
        <time>2018-01-22T18:36:28.000Z</time>
      </trkpt>
      <trkpt lat="45.32122" lon="5.80118">
        <ele>913</ele>
        <time>2018-01-22T18:36:29.000Z</time>
      </trkpt>
      <trkpt lat="45.32105" lon="5.801">
        <ele>913</ele>
        <time>2018-01-22T18:36:30.000Z</time>
      </trkpt>
      <trkpt lat="45.32083" lon="5.80089">
        <ele>913</ele>
        <time>2018-01-22T18:36:31.000Z</time>
      </trkpt>
      <trkpt lat="45.32059" lon="5.80075">
        <ele>913</ele>
        <time>2018-01-22T18:36:32.000Z</time>
      </trkpt>
      <trkpt lat="45.32045" lon="5.80064">
        <ele>913</ele>
        <time>2018-01-22T18:36:33.000Z</time>
      </trkpt>
      <trkpt lat="45.32029" lon="5.80048">
        <ele>914</ele>
        <time>2018-01-22T18:36:34.000Z</time>
      </trkpt>
      <trkpt lat="45.32016" lon="5.8002">
        <ele>910</ele>
        <time>2018-01-22T18:36:35.000Z</time>
      </trkpt>
      <trkpt lat="45.32028" lon="5.80034">
        <ele>910</ele>
        <time>2018-01-22T18:36:36.000Z</time>
      </trkpt>
      <trkpt lat="45.32059" lon="5.80052">
        <ele>913</ele>
        <time>2018-01-22T18:36:37.000Z</time>
      </trkpt>
      <trkpt lat="45.32087" lon="5.80068">
        <ele>913</ele>
        <time>2018-01-22T18:36:38.000Z</time>
      </trkpt>
      <trkpt lat="45.32121" lon="5.80081">
        <ele>913</ele>
        <time>2018-01-22T18:36:39.000Z</time>
      </trkpt>
      <trkpt lat="45.32163" lon="5.80088">
        <ele>899</ele>
        <time>2018-01-22T18:36:40.000Z</time>
      </trkpt>
      <trkpt lat="45.32192" lon="5.801">
        <ele>899</ele>
        <time>2018-01-22T18:36:41.000Z</time>
      </trkpt>
      <trkpt lat="45.32227" lon="5.80135">
        <ele>894</ele>
        <time>2018-01-22T18:36:42.000Z</time>
      </trkpt>
      <trkpt lat="45.32249" lon="5.80151">
        <ele>894</ele>
        <time>2018-01-22T18:36:43.000Z</time>
      </trkpt>
      <trkpt lat="45.32265" lon="5.8016">
        <ele>894</ele>
        <time>2018-01-22T18:36:44.000Z</time>
      </trkpt>
      <trkpt lat="45.32297" lon="5.80165">
        <ele>893</ele>
        <time>2018-01-22T18:36:45.000Z</time>
      </trkpt>
      <trkpt lat="45.32339" lon="5.80168">
        <ele>893</ele>
        <time>2018-01-22T18:36:46.000Z</time>
      </trkpt>
      <trkpt lat="45.32369" lon="5.80169">
        <ele>893</ele>
        <time>2018-01-22T18:36:47.000Z</time>
      </trkpt>
      <trkpt lat="45.32384" lon="5.80176">
        <ele>905</ele>
        <time>2018-01-22T18:36:48.000Z</time>
      </trkpt>
      <trkpt lat="45.32415" lon="5.80192">
        <ele>905</ele>
        <time>2018-01-22T18:36:49.000Z</time>
      </trkpt>
      <trkpt lat="45.32452" lon="5.80212">
        <ele>918</ele>
        <time>2018-01-22T18:36:50.000Z</time>
      </trkpt>
      <trkpt lat="45.32476" lon="5.80222">
        <ele>915</ele>
        <time>2018-01-22T18:36:51.000Z</time>
      </trkpt>
      <trkpt lat="45.32487" lon="5.80225">
        <ele>915</ele>
        <time>2018-01-22T18:36:52.000Z</time>
      </trkpt>
      <trkpt lat="45.32487" lon="5.80225">
        <ele>915</ele>
        <time>2018-01-22T18:36:53.000Z</time>
      </trkpt>
      <trkpt lat="45.32487" lon="5.80225">
        <ele>915</ele>
        <time>2018-01-22T18:36:54.000Z</time>
      </trkpt>
      <trkpt lat="45.32549" lon="5.80232">
        <ele>894</ele>
        <time>2018-01-22T18:36:55.000Z</time>
      </trkpt>
      <trkpt lat="45.32549" lon="5.80232">
        <ele>894</ele>
        <time>2018-01-22T18:36:56.000Z</time>
      </trkpt>
      <trkpt lat="45.32549" lon="5.80232">
        <ele>894</ele>
        <time>2018-01-22T18:36:57.000Z</time>
      </trkpt>
      <trkpt lat="45.32604" lon="5.8031">
        <ele>897</ele>
        <time>2018-01-22T18:36:58.000Z</time>
      </trkpt>
      <trkpt lat="45.32604" lon="5.8031">
        <ele>897</ele>
        <time>2018-01-22T18:36:59.000Z</time>
      </trkpt>
      <trkpt lat="45.32604" lon="5.8031">
        <ele>897</ele>
        <time>2018-01-22T18:37:00.000Z</time>
      </trkpt>
      <trkpt lat="45.32596" lon="5.80238">
        <ele>894</ele>
        <time>2018-01-22T18:37:01.000Z</time>
      </trkpt>
      <trkpt lat="45.32596" lon="5.80238">
        <ele>894</ele>
        <time>2018-01-22T18:37:02.000Z</time>
      </trkpt>
      <trkpt lat="45.32596" lon="5.80238">
        <ele>894</ele>
        <time>2018-01-22T18:37:03.000Z</time>
      </trkpt>
      <trkpt lat="45.32546" lon="5.80095">
        <ele>857</ele>
        <time>2018-01-22T18:37:04.000Z</time>
      </trkpt>
      <trkpt lat="45.32546" lon="5.80095">
        <ele>857</ele>
        <time>2018-01-22T18:37:05.000Z</time>
      </trkpt>
      <trkpt lat="45.32546" lon="5.80095">
        <ele>857</ele>
        <time>2018-01-22T18:37:06.000Z</time>
      </trkpt>
      <trkpt lat="45.32572" lon="5.80035">
        <ele>864</ele>
        <time>2018-01-22T18:37:07.000Z</time>
      </trkpt>
      <trkpt lat="45.32572" lon="5.80035">
        <ele>864</ele>
        <time>2018-01-22T18:37:08.000Z</time>
      </trkpt>
      <trkpt lat="45.32572" lon="5.80035">
        <ele>864</ele>
        <time>2018-01-22T18:37:09.000Z</time>
      </trkpt>
      <trkpt lat="45.3258" lon="5.8002">
        <ele>864</ele>
        <time>2018-01-22T18:37:10.000Z</time>
      </trkpt>
      <trkpt lat="45.3258" lon="5.8002">
        <ele>864</ele>
        <time>2018-01-22T18:37:11.000Z</time>
      </trkpt>
      <trkpt lat="45.3258" lon="5.8002">
        <ele>864</ele>
        <time>2018-01-22T18:37:12.000Z</time>
      </trkpt>
      <trkpt lat="45.32641" lon="5.8002">
        <ele>874</ele>
        <time>2018-01-22T18:37:13.000Z</time>
      </trkpt>
      <trkpt lat="45.32641" lon="5.8002">
        <ele>874</ele>
        <time>2018-01-22T18:37:14.000Z</time>
      </trkpt>
      <trkpt lat="45.32641" lon="5.8002">
        <ele>874</ele>
        <time>2018-01-22T18:37:15.000Z</time>
      </trkpt>
      <trkpt lat="45.32667" lon="5.80012">
        <ele>874</ele>
        <time>2018-01-22T18:37:16.000Z</time>
      </trkpt>
      <trkpt lat="45.32667" lon="5.80012">
        <ele>874</ele>
        <time>2018-01-22T18:37:17.000Z</time>
      </trkpt>
      <trkpt lat="45.32667" lon="5.80012">
        <ele>874</ele>
        <time>2018-01-22T18:37:18.000Z</time>
      </trkpt>
      <trkpt lat="45.32696" lon="5.79974">
        <ele>874</ele>
        <time>2018-01-22T18:37:19.000Z</time>
      </trkpt>
      <trkpt lat="45.32696" lon="5.79974">
        <ele>874</ele>
        <time>2018-01-22T18:37:20.000Z</time>
      </trkpt>
      <trkpt lat="45.32696" lon="5.79974">
        <ele>874</ele>
        <time>2018-01-22T18:37:21.000Z</time>
      </trkpt>
      <trkpt lat="45.32701" lon="5.79988">
        <ele>874</ele>
        <time>2018-01-22T18:37:22.000Z</time>
      </trkpt>
      <trkpt lat="45.32701" lon="5.79988">
        <ele>874</ele>
        <time>2018-01-22T18:37:23.000Z</time>
      </trkpt>
      <trkpt lat="45.32701" lon="5.79988">
        <ele>874</ele>
        <time>2018-01-22T18:37:24.000Z</time>
      </trkpt>
      <trkpt lat="45.32701" lon="5.79988">
        <ele>874</ele>
        <time>2018-01-22T18:37:25.000Z</time>
      </trkpt>
      <trkpt lat="45.32712" lon="5.80003">
        <ele>882</ele>
        <time>2018-01-22T18:37:26.000Z</time>
      </trkpt>
      <trkpt lat="45.32724" lon="5.80015">
        <ele>882</ele>
        <time>2018-01-22T18:37:27.000Z</time>
      </trkpt>
      <trkpt lat="45.32746" lon="5.80026">
        <ele>882</ele>
        <time>2018-01-22T18:37:28.000Z</time>
      </trkpt>
      <trkpt lat="45.32769" lon="5.80038">
        <ele>882</ele>
        <time>2018-01-22T18:37:29.000Z</time>
      </trkpt>
      <trkpt lat="45.32799" lon="5.8004">
        <ele>881</ele>
        <time>2018-01-22T18:37:30.000Z</time>
      </trkpt>
      <trkpt lat="45.32823" lon="5.80029">
        <ele>881</ele>
        <time>2018-01-22T18:37:31.000Z</time>
      </trkpt>
      <trkpt lat="45.3284" lon="5.80018">
        <ele>881</ele>
        <time>2018-01-22T18:37:32.000Z</time>
      </trkpt>
      <trkpt lat="45.32852" lon="5.80023">
        <ele>881</ele>
        <time>2018-01-22T18:37:33.000Z</time>
      </trkpt>
      <trkpt lat="45.32869" lon="5.80029">
        <ele>881</ele>
        <time>2018-01-22T18:37:34.000Z</time>
      </trkpt>
      <trkpt lat="45.3289" lon="5.80033">
        <ele>883</ele>
        <time>2018-01-22T18:37:35.000Z</time>
      </trkpt>
      <trkpt lat="45.32911" lon="5.80038">
        <ele>883</ele>
        <time>2018-01-22T18:37:36.000Z</time>
      </trkpt>
      <trkpt lat="45.32933" lon="5.80022">
        <ele>883</ele>
        <time>2018-01-22T18:37:37.000Z</time>
      </trkpt>
      <trkpt lat="45.3293" lon="5.80009">
        <ele>883</ele>
        <time>2018-01-22T18:37:38.000Z</time>
      </trkpt>
      <trkpt lat="45.32923" lon="5.79989">
        <ele>883</ele>
        <time>2018-01-22T18:37:39.000Z</time>
      </trkpt>
      <trkpt lat="45.3292" lon="5.79957">
        <ele>886</ele>
        <time>2018-01-22T18:37:40.000Z</time>
      </trkpt>
      <trkpt lat="45.32927" lon="5.79908">
        <ele>886</ele>
        <time>2018-01-22T18:37:41.000Z</time>
      </trkpt>
      <trkpt lat="45.3294" lon="5.79875">
        <ele>886</ele>
        <time>2018-01-22T18:37:42.000Z</time>
      </trkpt>
      <trkpt lat="45.32955" lon="5.79836">
        <ele>889</ele>
        <time>2018-01-22T18:37:43.000Z</time>
      </trkpt>
      <trkpt lat="45.32966" lon="5.79801">
        <ele>898</ele>
        <time>2018-01-22T18:37:44.000Z</time>
      </trkpt>
      <trkpt lat="45.32976" lon="5.79737">
        <ele>914</ele>
        <time>2018-01-22T18:37:45.000Z</time>
      </trkpt>
      <trkpt lat="45.32981" lon="5.79712">
        <ele>914</ele>
        <time>2018-01-22T18:37:46.000Z</time>
      </trkpt>
      <trkpt lat="45.32983" lon="5.79707">
        <ele>933</ele>
        <time>2018-01-22T18:37:47.000Z</time>
      </trkpt>
      <trkpt lat="45.32983" lon="5.79707">
        <ele>933</ele>
        <time>2018-01-22T18:37:48.000Z</time>
      </trkpt>
      <trkpt lat="45.32983" lon="5.79707">
        <ele>933</ele>
        <time>2018-01-22T18:37:49.000Z</time>
      </trkpt>
      <trkpt lat="45.33019" lon="5.79632">
        <ele>933</ele>
        <time>2018-01-22T18:37:50.000Z</time>
      </trkpt>
      <trkpt lat="45.33019" lon="5.79632">
        <ele>933</ele>
        <time>2018-01-22T18:37:51.000Z</time>
      </trkpt>
      <trkpt lat="45.33019" lon="5.79632">
        <ele>933</ele>
        <time>2018-01-22T18:37:52.000Z</time>
      </trkpt>
      <trkpt lat="45.33004" lon="5.79584">
        <ele>960</ele>
        <time>2018-01-22T18:37:53.000Z</time>
      </trkpt>
      <trkpt lat="45.33004" lon="5.79584">
        <ele>960</ele>
        <time>2018-01-22T18:37:54.000Z</time>
      </trkpt>
      <trkpt lat="45.33004" lon="5.79584">
        <ele>960</ele>
        <time>2018-01-22T18:37:55.000Z</time>
      </trkpt>
      <trkpt lat="45.32963" lon="5.79516">
        <ele>986</ele>
        <time>2018-01-22T18:37:56.000Z</time>
      </trkpt>
      <trkpt lat="45.32963" lon="5.79516">
        <ele>986</ele>
        <time>2018-01-22T18:37:57.000Z</time>
      </trkpt>
      <trkpt lat="45.32963" lon="5.79516">
        <ele>986</ele>
        <time>2018-01-22T18:37:58.000Z</time>
      </trkpt>
      <trkpt lat="45.32913" lon="5.79393">
        <ele>1002</ele>
        <time>2018-01-22T18:37:59.000Z</time>
      </trkpt>
      <trkpt lat="45.32913" lon="5.79393">
        <ele>1002</ele>
        <time>2018-01-22T18:38:00.000Z</time>
      </trkpt>
      <trkpt lat="45.32913" lon="5.79393">
        <ele>1002</ele>
        <time>2018-01-22T18:38:01.000Z</time>
      </trkpt>
      <trkpt lat="45.32964" lon="5.79403">
        <ele>1017</ele>
        <time>2018-01-22T18:38:02.000Z</time>
      </trkpt>
      <trkpt lat="45.32964" lon="5.79403">
        <ele>1017</ele>
        <time>2018-01-22T18:38:03.000Z</time>
      </trkpt>
      <trkpt lat="45.32964" lon="5.79403">
        <ele>1017</ele>
        <time>2018-01-22T18:38:04.000Z</time>
      </trkpt>
      <trkpt lat="45.32977" lon="5.79409">
        <ele>1017</ele>
        <time>2018-01-22T18:38:05.000Z</time>
      </trkpt>
      <trkpt lat="45.32977" lon="5.79409">
        <ele>1017</ele>
        <time>2018-01-22T18:38:06.000Z</time>
      </trkpt>
      <trkpt lat="45.32977" lon="5.79409">
        <ele>1017</ele>
        <time>2018-01-22T18:38:07.000Z</time>
      </trkpt>
      <trkpt lat="45.33007" lon="5.79408">
        <ele>1017</ele>
        <time>2018-01-22T18:38:08.000Z</time>
      </trkpt>
      <trkpt lat="45.33007" lon="5.79408">
        <ele>1017</ele>
        <time>2018-01-22T18:38:09.000Z</time>
      </trkpt>
      <trkpt lat="45.33007" lon="5.79408">
        <ele>1017</ele>
        <time>2018-01-22T18:38:10.000Z</time>
      </trkpt>
      <trkpt lat="45.33031" lon="5.79366">
        <ele>1043</ele>
        <time>2018-01-22T18:38:11.000Z</time>
      </trkpt>
      <trkpt lat="45.33031" lon="5.79366">
        <ele>1043</ele>
        <time>2018-01-22T18:38:12.000Z</time>
      </trkpt>
      <trkpt lat="45.33031" lon="5.79366">
        <ele>1043</ele>
        <time>2018-01-22T18:38:13.000Z</time>
      </trkpt>
      <trkpt lat="45.33023" lon="5.79342">
        <ele>1043</ele>
        <time>2018-01-22T18:38:14.000Z</time>
      </trkpt>
      <trkpt lat="45.33023" lon="5.79342">
        <ele>1043</ele>
        <time>2018-01-22T18:38:15.000Z</time>
      </trkpt>
      <trkpt lat="45.33023" lon="5.79342">
        <ele>1043</ele>
        <time>2018-01-22T18:38:16.000Z</time>
      </trkpt>
      <trkpt lat="45.33011" lon="5.79316">
        <ele>1043</ele>
        <time>2018-01-22T18:38:17.000Z</time>
      </trkpt>
      <trkpt lat="45.33011" lon="5.79316">
        <ele>1043</ele>
        <time>2018-01-22T18:38:18.000Z</time>
      </trkpt>
      <trkpt lat="45.33011" lon="5.79316">
        <ele>1043</ele>
        <time>2018-01-22T18:38:19.000Z</time>
      </trkpt>
      <trkpt lat="45.33008" lon="5.79311">
        <ele>1043</ele>
        <time>2018-01-22T18:38:20.000Z</time>
      </trkpt>
      <trkpt lat="45.33009" lon="5.79299">
        <ele>1043</ele>
        <time>2018-01-22T18:38:21.000Z</time>
      </trkpt>
      <trkpt lat="45.33033" lon="5.7926">
        <ele>1058</ele>
        <time>2018-01-22T18:38:22.000Z</time>
      </trkpt>
      <trkpt lat="45.3304" lon="5.79247">
        <ele>1058</ele>
        <time>2018-01-22T18:38:23.000Z</time>
      </trkpt>
      <trkpt lat="45.3304" lon="5.79234">
        <ele>1058</ele>
        <time>2018-01-22T18:38:24.000Z</time>
      </trkpt>
      <trkpt lat="45.33045" lon="5.79222">
        <ele>1061</ele>
        <time>2018-01-22T18:38:25.000Z</time>
      </trkpt>
      <trkpt lat="45.33052" lon="5.79223">
        <ele>1061</ele>
        <time>2018-01-22T18:38:26.000Z</time>
      </trkpt>
      <trkpt lat="45.3306" lon="5.79238">
        <ele>1061</ele>
        <time>2018-01-22T18:38:27.000Z</time>
      </trkpt>
      <trkpt lat="45.33078" lon="5.79248">
        <ele>1061</ele>
        <time>2018-01-22T18:38:28.000Z</time>
      </trkpt>
      <trkpt lat="45.33111" lon="5.79256">
        <ele>1061</ele>
        <time>2018-01-22T18:38:29.000Z</time>
      </trkpt>
      <trkpt lat="45.33133" lon="5.79273">
        <ele>1075</ele>
        <time>2018-01-22T18:38:30.000Z</time>
      </trkpt>
      <trkpt lat="45.33152" lon="5.79299">
        <ele>1064</ele>
        <time>2018-01-22T18:38:31.000Z</time>
      </trkpt>
      <trkpt lat="45.33152" lon="5.79299">
        <ele>1064</ele>
        <time>2018-01-22T18:38:32.000Z</time>
      </trkpt>
      <trkpt lat="45.33152" lon="5.79299">
        <ele>1064</ele>
        <time>2018-01-22T18:38:33.000Z</time>
      </trkpt>
      <trkpt lat="45.3318" lon="5.79323">
        <ele>1064</ele>
        <time>2018-01-22T18:38:34.000Z</time>
      </trkpt>
      <trkpt lat="45.3318" lon="5.79323">
        <ele>1064</ele>
        <time>2018-01-22T18:38:35.000Z</time>
      </trkpt>
      <trkpt lat="45.3318" lon="5.79323">
        <ele>1064</ele>
        <time>2018-01-22T18:38:36.000Z</time>
      </trkpt>
      <trkpt lat="45.3325" lon="5.79334">
        <ele>1077</ele>
        <time>2018-01-22T18:38:37.000Z</time>
      </trkpt>
      <trkpt lat="45.3325" lon="5.79334">
        <ele>1077</ele>
        <time>2018-01-22T18:38:38.000Z</time>
      </trkpt>
      <trkpt lat="45.3325" lon="5.79334">
        <ele>1077</ele>
        <time>2018-01-22T18:38:39.000Z</time>
      </trkpt>
      <trkpt lat="45.33268" lon="5.79377">
        <ele>1058</ele>
        <time>2018-01-22T18:38:40.000Z</time>
      </trkpt>
      <trkpt lat="45.33268" lon="5.79377">
        <ele>1058</ele>
        <time>2018-01-22T18:38:41.000Z</time>
      </trkpt>
      <trkpt lat="45.33268" lon="5.79377">
        <ele>1058</ele>
        <time>2018-01-22T18:38:42.000Z</time>
      </trkpt>
      <trkpt lat="45.33341" lon="5.79482">
        <ele>1050</ele>
        <time>2018-01-22T18:38:43.000Z</time>
      </trkpt>
      <trkpt lat="45.33341" lon="5.79482">
        <ele>1050</ele>
        <time>2018-01-22T18:38:44.000Z</time>
      </trkpt>
      <trkpt lat="45.33341" lon="5.79482">
        <ele>1050</ele>
        <time>2018-01-22T18:38:45.000Z</time>
      </trkpt>
      <trkpt lat="45.33389" lon="5.79631">
        <ele>1026</ele>
        <time>2018-01-22T18:38:46.000Z</time>
      </trkpt>
      <trkpt lat="45.33389" lon="5.79631">
        <ele>1026</ele>
        <time>2018-01-22T18:38:47.000Z</time>
      </trkpt>
      <trkpt lat="45.33389" lon="5.79631">
        <ele>1026</ele>
        <time>2018-01-22T18:38:48.000Z</time>
      </trkpt>
      <trkpt lat="45.33397" lon="5.79695">
        <ele>1026</ele>
        <time>2018-01-22T18:38:49.000Z</time>
      </trkpt>
      <trkpt lat="45.33397" lon="5.79695">
        <ele>1026</ele>
        <time>2018-01-22T18:38:50.000Z</time>
      </trkpt>
      <trkpt lat="45.33397" lon="5.79695">
        <ele>1026</ele>
        <time>2018-01-22T18:38:51.000Z</time>
      </trkpt>
      <trkpt lat="45.33418" lon="5.79765">
        <ele>1010</ele>
        <time>2018-01-22T18:38:52.000Z</time>
      </trkpt>
      <trkpt lat="45.33418" lon="5.79765">
        <ele>1010</ele>
        <time>2018-01-22T18:38:53.000Z</time>
      </trkpt>
      <trkpt lat="45.33418" lon="5.79765">
        <ele>1010</ele>
        <time>2018-01-22T18:38:54.000Z</time>
      </trkpt>
      <trkpt lat="45.33582" lon="5.79899">
        <ele>959</ele>
        <time>2018-01-22T18:38:55.000Z</time>
      </trkpt>
      <trkpt lat="45.33582" lon="5.79899">
        <ele>959</ele>
        <time>2018-01-22T18:38:56.000Z</time>
      </trkpt>
      <trkpt lat="45.33582" lon="5.79899">
        <ele>959</ele>
        <time>2018-01-22T18:38:57.000Z</time>
      </trkpt>
      <trkpt lat="45.33587" lon="5.79924">
        <ele>959</ele>
        <time>2018-01-22T18:38:58.000Z</time>
      </trkpt>
      <trkpt lat="45.33587" lon="5.79924">
        <ele>959</ele>
        <time>2018-01-22T18:38:59.000Z</time>
      </trkpt>
      <trkpt lat="45.33587" lon="5.79924">
        <ele>959</ele>
        <time>2018-01-22T18:39:00.000Z</time>
      </trkpt>
      <trkpt lat="45.3362" lon="5.79924">
        <ele>959</ele>
        <time>2018-01-22T18:39:01.000Z</time>
      </trkpt>
      <trkpt lat="45.3362" lon="5.79924">
        <ele>959</ele>
        <time>2018-01-22T18:39:02.000Z</time>
      </trkpt>
      <trkpt lat="45.3362" lon="5.79924">
        <ele>959</ele>
        <time>2018-01-22T18:39:03.000Z</time>
      </trkpt>
      <trkpt lat="45.33663" lon="5.79891">
        <ele>956</ele>
        <time>2018-01-22T18:39:04.000Z</time>
      </trkpt>
      <trkpt lat="45.33663" lon="5.79891">
        <ele>956</ele>
        <time>2018-01-22T18:39:05.000Z</time>
      </trkpt>
      <trkpt lat="45.33663" lon="5.79891">
        <ele>956</ele>
        <time>2018-01-22T18:39:06.000Z</time>
      </trkpt>
      <trkpt lat="45.33688" lon="5.79883">
        <ele>956</ele>
        <time>2018-01-22T18:39:07.000Z</time>
      </trkpt>
      <trkpt lat="45.33688" lon="5.79883">
        <ele>956</ele>
        <time>2018-01-22T18:39:08.000Z</time>
      </trkpt>
      <trkpt lat="45.33688" lon="5.79883">
        <ele>956</ele>
        <time>2018-01-22T18:39:09.000Z</time>
      </trkpt>
      <trkpt lat="45.33749" lon="5.79951">
        <ele>943</ele>
        <time>2018-01-22T18:39:10.000Z</time>
      </trkpt>
      <trkpt lat="45.33749" lon="5.79951">
        <ele>943</ele>
        <time>2018-01-22T18:39:11.000Z</time>
      </trkpt>
      <trkpt lat="45.33749" lon="5.79951">
        <ele>943</ele>
        <time>2018-01-22T18:39:12.000Z</time>
      </trkpt>
      <trkpt lat="45.33777" lon="5.80027">
        <ele>922</ele>
        <time>2018-01-22T18:39:13.000Z</time>
      </trkpt>
      <trkpt lat="45.33777" lon="5.80027">
        <ele>922</ele>
        <time>2018-01-22T18:39:14.000Z</time>
      </trkpt>
      <trkpt lat="45.33777" lon="5.80027">
        <ele>922</ele>
        <time>2018-01-22T18:39:15.000Z</time>
      </trkpt>
      <trkpt lat="45.33831" lon="5.80145">
        <ele>891</ele>
        <time>2018-01-22T18:39:16.000Z</time>
      </trkpt>
      <trkpt lat="45.33831" lon="5.80145">
        <ele>891</ele>
        <time>2018-01-22T18:39:17.000Z</time>
      </trkpt>
      <trkpt lat="45.33831" lon="5.80145">
        <ele>891</ele>
        <time>2018-01-22T18:39:18.000Z</time>
      </trkpt>
      <trkpt lat="45.33833" lon="5.80163">
        <ele>891</ele>
        <time>2018-01-22T18:39:19.000Z</time>
      </trkpt>
      <trkpt lat="45.33833" lon="5.80176">
        <ele>891</ele>
        <time>2018-01-22T18:39:20.000Z</time>
      </trkpt>
      <trkpt lat="45.33823" lon="5.802">
        <ele>891</ele>
        <time>2018-01-22T18:39:21.000Z</time>
      </trkpt>
      <trkpt lat="45.33803" lon="5.80242">
        <ele>878</ele>
        <time>2018-01-22T18:39:22.000Z</time>
      </trkpt>
      <trkpt lat="45.33784" lon="5.80272">
        <ele>873</ele>
        <time>2018-01-22T18:39:23.000Z</time>
      </trkpt>
      <trkpt lat="45.33775" lon="5.80286">
        <ele>873</ele>
        <time>2018-01-22T18:39:24.000Z</time>
      </trkpt>
      <trkpt lat="45.33775" lon="5.80286">
        <ele>873</ele>
        <time>2018-01-22T18:39:25.000Z</time>
      </trkpt>
      <trkpt lat="45.33775" lon="5.80286">
        <ele>873</ele>
        <time>2018-01-22T18:39:26.000Z</time>
      </trkpt>
      <trkpt lat="45.33816" lon="5.80335">
        <ele>870</ele>
        <time>2018-01-22T18:39:27.000Z</time>
      </trkpt>
      <trkpt lat="45.33816" lon="5.80335">
        <ele>870</ele>
        <time>2018-01-22T18:39:28.000Z</time>
      </trkpt>
      <trkpt lat="45.33816" lon="5.80335">
        <ele>870</ele>
        <time>2018-01-22T18:39:29.000Z</time>
      </trkpt>
      <trkpt lat="45.33854" lon="5.80356">
        <ele>870</ele>
        <time>2018-01-22T18:39:30.000Z</time>
      </trkpt>
      <trkpt lat="45.33854" lon="5.80356">
        <ele>870</ele>
        <time>2018-01-22T18:39:31.000Z</time>
      </trkpt>
      <trkpt lat="45.33854" lon="5.80356">
        <ele>870</ele>
        <time>2018-01-22T18:39:32.000Z</time>
      </trkpt>
      <trkpt lat="45.33952" lon="5.80321">
        <ele>868</ele>
        <time>2018-01-22T18:39:33.000Z</time>
      </trkpt>
      <trkpt lat="45.33952" lon="5.80321">
        <ele>868</ele>
        <time>2018-01-22T18:39:34.000Z</time>
      </trkpt>
      <trkpt lat="45.33952" lon="5.80321">
        <ele>868</ele>
        <time>2018-01-22T18:39:35.000Z</time>
      </trkpt>
      <trkpt lat="45.3402" lon="5.80287">
        <ele>863</ele>
        <time>2018-01-22T18:39:36.000Z</time>
      </trkpt>
      <trkpt lat="45.3402" lon="5.80287">
        <ele>863</ele>
        <time>2018-01-22T18:39:37.000Z</time>
      </trkpt>
      <trkpt lat="45.3402" lon="5.80287">
        <ele>863</ele>
        <time>2018-01-22T18:39:38.000Z</time>
      </trkpt>
      <trkpt lat="45.34047" lon="5.80253">
        <ele>843</ele>
        <time>2018-01-22T18:39:39.000Z</time>
      </trkpt>
      <trkpt lat="45.34047" lon="5.80253">
        <ele>843</ele>
        <time>2018-01-22T18:39:40.000Z</time>
      </trkpt>
      <trkpt lat="45.34047" lon="5.80253">
        <ele>843</ele>
        <time>2018-01-22T18:39:41.000Z</time>
      </trkpt>
      <trkpt lat="45.34084" lon="5.8024">
        <ele>843</ele>
        <time>2018-01-22T18:39:42.000Z</time>
      </trkpt>
      <trkpt lat="45.34084" lon="5.8024">
        <ele>843</ele>
        <time>2018-01-22T18:39:43.000Z</time>
      </trkpt>
      <trkpt lat="45.34084" lon="5.8024">
        <ele>843</ele>
        <time>2018-01-22T18:39:44.000Z</time>
      </trkpt>
      <trkpt lat="45.34114" lon="5.80241">
        <ele>843</ele>
        <time>2018-01-22T18:39:45.000Z</time>
      </trkpt>
      <trkpt lat="45.34114" lon="5.80241">
        <ele>843</ele>
        <time>2018-01-22T18:39:46.000Z</time>
      </trkpt>
      <trkpt lat="45.34114" lon="5.80241">
        <ele>843</ele>
        <time>2018-01-22T18:39:47.000Z</time>
      </trkpt>
      <trkpt lat="45.34145" lon="5.80248">
        <ele>832</ele>
        <time>2018-01-22T18:39:48.000Z</time>
      </trkpt>
      <trkpt lat="45.34192" lon="5.80256">
        <ele>832</ele>
        <time>2018-01-22T18:39:49.000Z</time>
      </trkpt>
      <trkpt lat="45.34254" lon="5.80257">
        <ele>825</ele>
        <time>2018-01-22T18:39:50.000Z</time>
      </trkpt>
      <trkpt lat="45.34254" lon="5.80257">
        <ele>825</ele>
        <time>2018-01-22T18:39:51.000Z</time>
      </trkpt>
      <trkpt lat="45.34254" lon="5.80257">
        <ele>825</ele>
        <time>2018-01-22T18:39:52.000Z</time>
      </trkpt>
      <trkpt lat="45.34284" lon="5.80205">
        <ele>835</ele>
        <time>2018-01-22T18:39:53.000Z</time>
      </trkpt>
      <trkpt lat="45.34284" lon="5.80205">
        <ele>835</ele>
        <time>2018-01-22T18:39:54.000Z</time>
      </trkpt>
      <trkpt lat="45.34284" lon="5.80205">
        <ele>835</ele>
        <time>2018-01-22T18:39:55.000Z</time>
      </trkpt>
      <trkpt lat="45.34338" lon="5.80109">
        <ele>838</ele>
        <time>2018-01-22T18:39:56.000Z</time>
      </trkpt>
      <trkpt lat="45.34338" lon="5.80109">
        <ele>838</ele>
        <time>2018-01-22T18:39:57.000Z</time>
      </trkpt>
      <trkpt lat="45.34338" lon="5.80109">
        <ele>838</ele>
        <time>2018-01-22T18:39:58.000Z</time>
      </trkpt>
      <trkpt lat="45.34377" lon="5.801">
        <ele>823</ele>
        <time>2018-01-22T18:39:59.000Z</time>
      </trkpt>
      <trkpt lat="45.34377" lon="5.801">
        <ele>823</ele>
        <time>2018-01-22T18:40:00.000Z</time>
      </trkpt>
      <trkpt lat="45.34377" lon="5.801">
        <ele>823</ele>
        <time>2018-01-22T18:40:01.000Z</time>
      </trkpt>
      <trkpt lat="45.34409" lon="5.80065">
        <ele>823</ele>
        <time>2018-01-22T18:40:02.000Z</time>
      </trkpt>
      <trkpt lat="45.34409" lon="5.80065">
        <ele>823</ele>
        <time>2018-01-22T18:40:03.000Z</time>
      </trkpt>
      <trkpt lat="45.34409" lon="5.80065">
        <ele>823</ele>
        <time>2018-01-22T18:40:04.000Z</time>
      </trkpt>
      <trkpt lat="45.34423" lon="5.80117">
        <ele>823</ele>
        <time>2018-01-22T18:40:05.000Z</time>
      </trkpt>
      <trkpt lat="45.34423" lon="5.80117">
        <ele>823</ele>
        <time>2018-01-22T18:40:06.000Z</time>
      </trkpt>
      <trkpt lat="45.34423" lon="5.80117">
        <ele>823</ele>
        <time>2018-01-22T18:40:07.000Z</time>
      </trkpt>
      <trkpt lat="45.34415" lon="5.80167">
        <ele>809</ele>
        <time>2018-01-22T18:40:08.000Z</time>
      </trkpt>
      <trkpt lat="45.34415" lon="5.80167">
        <ele>809</ele>
        <time>2018-01-22T18:40:09.000Z</time>
      </trkpt>
      <trkpt lat="45.34415" lon="5.80167">
        <ele>809</ele>
        <time>2018-01-22T18:40:10.000Z</time>
      </trkpt>
      <trkpt lat="45.34415" lon="5.80205">
        <ele>809</ele>
        <time>2018-01-22T18:40:11.000Z</time>
      </trkpt>
      <trkpt lat="45.34415" lon="5.80205">
        <ele>809</ele>
        <time>2018-01-22T18:40:12.000Z</time>
      </trkpt>
      <trkpt lat="45.34415" lon="5.80205">
        <ele>809</ele>
        <time>2018-01-22T18:40:13.000Z</time>
      </trkpt>
      <trkpt lat="45.34448" lon="5.80209">
        <ele>817</ele>
        <time>2018-01-22T18:40:14.000Z</time>
      </trkpt>
      <trkpt lat="45.34448" lon="5.80209">
        <ele>817</ele>
        <time>2018-01-22T18:40:15.000Z</time>
      </trkpt>
      <trkpt lat="45.34448" lon="5.80209">
        <ele>817</ele>
        <time>2018-01-22T18:40:16.000Z</time>
      </trkpt>
      <trkpt lat="45.34522" lon="5.80268">
        <ele>839</ele>
        <time>2018-01-22T18:40:17.000Z</time>
      </trkpt>
      <trkpt lat="45.34522" lon="5.80268">
        <ele>839</ele>
        <time>2018-01-22T18:40:18.000Z</time>
      </trkpt>
      <trkpt lat="45.34522" lon="5.80268">
        <ele>839</ele>
        <time>2018-01-22T18:40:19.000Z</time>
      </trkpt>
      <trkpt lat="45.34567" lon="5.80269">
        <ele>874</ele>
        <time>2018-01-22T18:40:20.000Z</time>
      </trkpt>
      <trkpt lat="45.34567" lon="5.80269">
        <ele>874</ele>
        <time>2018-01-22T18:40:21.000Z</time>
      </trkpt>
      <trkpt lat="45.34567" lon="5.80269">
        <ele>874</ele>
        <time>2018-01-22T18:40:22.000Z</time>
      </trkpt>
      <trkpt lat="45.34611" lon="5.80334">
        <ele>864</ele>
        <time>2018-01-22T18:40:23.000Z</time>
      </trkpt>
      <trkpt lat="45.34611" lon="5.80334">
        <ele>864</ele>
        <time>2018-01-22T18:40:24.000Z</time>
      </trkpt>
      <trkpt lat="45.34611" lon="5.80334">
        <ele>864</ele>
        <time>2018-01-22T18:40:25.000Z</time>
      </trkpt>
      <trkpt lat="45.34605" lon="5.80362">
        <ele>864</ele>
        <time>2018-01-22T18:40:26.000Z</time>
      </trkpt>
      <trkpt lat="45.34605" lon="5.80362">
        <ele>864</ele>
        <time>2018-01-22T18:40:27.000Z</time>
      </trkpt>
      <trkpt lat="45.34605" lon="5.80362">
        <ele>864</ele>
        <time>2018-01-22T18:40:28.000Z</time>
      </trkpt>
      <trkpt lat="45.34553" lon="5.80386">
        <ele>892</ele>
        <time>2018-01-22T18:40:29.000Z</time>
      </trkpt>
      <trkpt lat="45.34553" lon="5.80386">
        <ele>892</ele>
        <time>2018-01-22T18:40:30.000Z</time>
      </trkpt>
      <trkpt lat="45.34553" lon="5.80386">
        <ele>892</ele>
        <time>2018-01-22T18:40:31.000Z</time>
      </trkpt>
      <trkpt lat="45.34498" lon="5.80396">
        <ele>912</ele>
        <time>2018-01-22T18:40:32.000Z</time>
      </trkpt>
      <trkpt lat="45.34498" lon="5.80396">
        <ele>912</ele>
        <time>2018-01-22T18:40:33.000Z</time>
      </trkpt>
      <trkpt lat="45.34498" lon="5.80396">
        <ele>912</ele>
        <time>2018-01-22T18:40:34.000Z</time>
      </trkpt>
      <trkpt lat="45.34427" lon="5.80382">
        <ele>905</ele>
        <time>2018-01-22T18:40:35.000Z</time>
      </trkpt>
      <trkpt lat="45.34427" lon="5.80382">
        <ele>905</ele>
        <time>2018-01-22T18:40:36.000Z</time>
      </trkpt>
      <trkpt lat="45.34427" lon="5.80382">
        <ele>905</ele>
        <time>2018-01-22T18:40:37.000Z</time>
      </trkpt>
      <trkpt lat="45.34383" lon="5.80388">
        <ele>905</ele>
        <time>2018-01-22T18:40:38.000Z</time>
      </trkpt>
      <trkpt lat="45.34383" lon="5.80388">
        <ele>905</ele>
        <time>2018-01-22T18:40:39.000Z</time>
      </trkpt>
      <trkpt lat="45.34383" lon="5.80388">
        <ele>905</ele>
        <time>2018-01-22T18:40:40.000Z</time>
      </trkpt>
      <trkpt lat="45.34275" lon="5.80425">
        <ele>853</ele>
        <time>2018-01-22T18:40:41.000Z</time>
      </trkpt>
      <trkpt lat="45.34275" lon="5.80425">
        <ele>853</ele>
        <time>2018-01-22T18:40:42.000Z</time>
      </trkpt>
      <trkpt lat="45.34275" lon="5.80425">
        <ele>853</ele>
        <time>2018-01-22T18:40:43.000Z</time>
      </trkpt>
      <trkpt lat="45.34199" lon="5.80477">
        <ele>865</ele>
        <time>2018-01-22T18:40:44.000Z</time>
      </trkpt>
      <trkpt lat="45.34199" lon="5.80477">
        <ele>865</ele>
        <time>2018-01-22T18:40:45.000Z</time>
      </trkpt>
      <trkpt lat="45.34199" lon="5.80477">
        <ele>865</ele>
        <time>2018-01-22T18:40:46.000Z</time>
      </trkpt>
      <trkpt lat="45.34151" lon="5.80528">
        <ele>865</ele>
        <time>2018-01-22T18:40:47.000Z</time>
      </trkpt>
      <trkpt lat="45.34151" lon="5.80528">
        <ele>865</ele>
        <time>2018-01-22T18:40:48.000Z</time>
      </trkpt>
      <trkpt lat="45.34151" lon="5.80528">
        <ele>865</ele>
        <time>2018-01-22T18:40:49.000Z</time>
      </trkpt>
      <trkpt lat="45.34082" lon="5.80588">
        <ele>827</ele>
        <time>2018-01-22T18:40:50.000Z</time>
      </trkpt>
      <trkpt lat="45.34082" lon="5.80588">
        <ele>827</ele>
        <time>2018-01-22T18:40:51.000Z</time>
      </trkpt>
      <trkpt lat="45.34082" lon="5.80588">
        <ele>827</ele>
        <time>2018-01-22T18:40:52.000Z</time>
      </trkpt>
      <trkpt lat="45.34001" lon="5.80643">
        <ele>799</ele>
        <time>2018-01-22T18:40:53.000Z</time>
      </trkpt>
      <trkpt lat="45.34001" lon="5.80643">
        <ele>799</ele>
        <time>2018-01-22T18:40:54.000Z</time>
      </trkpt>
      <trkpt lat="45.34001" lon="5.80643">
        <ele>799</ele>
        <time>2018-01-22T18:40:55.000Z</time>
      </trkpt>
      <trkpt lat="45.33973" lon="5.80668">
        <ele>799</ele>
        <time>2018-01-22T18:40:56.000Z</time>
      </trkpt>
      <trkpt lat="45.33973" lon="5.80668">
        <ele>799</ele>
        <time>2018-01-22T18:40:57.000Z</time>
      </trkpt>
      <trkpt lat="45.33973" lon="5.80668">
        <ele>799</ele>
        <time>2018-01-22T18:40:58.000Z</time>
      </trkpt>
      <trkpt lat="45.33982" lon="5.80781">
        <ele>802</ele>
        <time>2018-01-22T18:40:59.000Z</time>
      </trkpt>
      <trkpt lat="45.33982" lon="5.80781">
        <ele>802</ele>
        <time>2018-01-22T18:41:00.000Z</time>
      </trkpt>
      <trkpt lat="45.33982" lon="5.80781">
        <ele>802</ele>
        <time>2018-01-22T18:41:01.000Z</time>
      </trkpt>
      <trkpt lat="45.33933" lon="5.80755">
        <ele>805</ele>
        <time>2018-01-22T18:41:02.000Z</time>
      </trkpt>
      <trkpt lat="45.33933" lon="5.80755">
        <ele>805</ele>
        <time>2018-01-22T18:41:03.000Z</time>
      </trkpt>
      <trkpt lat="45.33933" lon="5.80755">
        <ele>805</ele>
        <time>2018-01-22T18:41:04.000Z</time>
      </trkpt>
      <trkpt lat="45.3393" lon="5.80798">
        <ele>832</ele>
        <time>2018-01-22T18:41:05.000Z</time>
      </trkpt>
      <trkpt lat="45.3393" lon="5.80798">
        <ele>832</ele>
        <time>2018-01-22T18:41:06.000Z</time>
      </trkpt>
      <trkpt lat="45.3393" lon="5.80798">
        <ele>832</ele>
        <time>2018-01-22T18:41:07.000Z</time>
      </trkpt>
      <trkpt lat="45.33957" lon="5.80901">
        <ele>848</ele>
        <time>2018-01-22T18:41:08.000Z</time>
      </trkpt>
      <trkpt lat="45.33957" lon="5.80901">
        <ele>848</ele>
        <time>2018-01-22T18:41:09.000Z</time>
      </trkpt>
      <trkpt lat="45.33957" lon="5.80901">
        <ele>848</ele>
        <time>2018-01-22T18:41:10.000Z</time>
      </trkpt>
      <trkpt lat="45.33924" lon="5.80928">
        <ele>848</ele>
        <time>2018-01-22T18:41:11.000Z</time>
      </trkpt>
      <trkpt lat="45.33924" lon="5.80928">
        <ele>848</ele>
        <time>2018-01-22T18:41:12.000Z</time>
      </trkpt>
      <trkpt lat="45.33924" lon="5.80928">
        <ele>848</ele>
        <time>2018-01-22T18:41:13.000Z</time>
      </trkpt>
      <trkpt lat="45.33919" lon="5.81035">
        <ele>847</ele>
        <time>2018-01-22T18:41:14.000Z</time>
      </trkpt>
      <trkpt lat="45.33919" lon="5.81035">
        <ele>847</ele>
        <time>2018-01-22T18:41:15.000Z</time>
      </trkpt>
      <trkpt lat="45.33919" lon="5.81035">
        <ele>847</ele>
        <time>2018-01-22T18:41:16.000Z</time>
      </trkpt>
      <trkpt lat="45.33949" lon="5.8118">
        <ele>850</ele>
        <time>2018-01-22T18:41:17.000Z</time>
      </trkpt>
      <trkpt lat="45.33949" lon="5.8118">
        <ele>850</ele>
        <time>2018-01-22T18:41:18.000Z</time>
      </trkpt>
      <trkpt lat="45.33949" lon="5.8118">
        <ele>850</ele>
        <time>2018-01-22T18:41:19.000Z</time>
      </trkpt>
      <trkpt lat="45.33943" lon="5.81292">
        <ele>859</ele>
        <time>2018-01-22T18:41:20.000Z</time>
      </trkpt>
      <trkpt lat="45.33943" lon="5.81292">
        <ele>859</ele>
        <time>2018-01-22T18:41:21.000Z</time>
      </trkpt>
      <trkpt lat="45.33943" lon="5.81292">
        <ele>859</ele>
        <time>2018-01-22T18:41:22.000Z</time>
      </trkpt>
      <trkpt lat="45.33972" lon="5.81341">
        <ele>830</ele>
        <time>2018-01-22T18:41:23.000Z</time>
      </trkpt>
      <trkpt lat="45.33972" lon="5.81341">
        <ele>830</ele>
        <time>2018-01-22T18:41:24.000Z</time>
      </trkpt>
      <trkpt lat="45.33972" lon="5.81341">
        <ele>830</ele>
        <time>2018-01-22T18:41:25.000Z</time>
      </trkpt>
      <trkpt lat="45.33972" lon="5.81369">
        <ele>830</ele>
        <time>2018-01-22T18:41:26.000Z</time>
      </trkpt>
      <trkpt lat="45.33972" lon="5.81369">
        <ele>830</ele>
        <time>2018-01-22T18:41:27.000Z</time>
      </trkpt>
      <trkpt lat="45.33972" lon="5.81369">
        <ele>830</ele>
        <time>2018-01-22T18:41:28.000Z</time>
      </trkpt>
      <trkpt lat="45.33963" lon="5.81388">
        <ele>832</ele>
        <time>2018-01-22T18:41:29.000Z</time>
      </trkpt>
      <trkpt lat="45.33963" lon="5.81388">
        <ele>832</ele>
        <time>2018-01-22T18:41:30.000Z</time>
      </trkpt>
      <trkpt lat="45.33963" lon="5.81388">
        <ele>832</ele>
        <time>2018-01-22T18:41:31.000Z</time>
      </trkpt>
      <trkpt lat="45.33939" lon="5.81391">
        <ele>869</ele>
        <time>2018-01-22T18:41:32.000Z</time>
      </trkpt>
      <trkpt lat="45.33939" lon="5.81391">
        <ele>869</ele>
        <time>2018-01-22T18:41:33.000Z</time>
      </trkpt>
      <trkpt lat="45.33939" lon="5.81391">
        <ele>869</ele>
        <time>2018-01-22T18:41:34.000Z</time>
      </trkpt>
      <trkpt lat="45.33925" lon="5.81425">
        <ele>869</ele>
        <time>2018-01-22T18:41:35.000Z</time>
      </trkpt>
      <trkpt lat="45.33925" lon="5.81425">
        <ele>869</ele>
        <time>2018-01-22T18:41:36.000Z</time>
      </trkpt>
      <trkpt lat="45.33925" lon="5.81425">
        <ele>869</ele>
        <time>2018-01-22T18:41:37.000Z</time>
      </trkpt>
      <trkpt lat="45.33951" lon="5.81507">
        <ele>870</ele>
        <time>2018-01-22T18:41:38.000Z</time>
      </trkpt>
      <trkpt lat="45.33951" lon="5.81507">
        <ele>870</ele>
        <time>2018-01-22T18:41:39.000Z</time>
      </trkpt>
      <trkpt lat="45.33951" lon="5.81507">
        <ele>870</ele>
        <time>2018-01-22T18:41:40.000Z</time>
      </trkpt>
      <trkpt lat="45.33974" lon="5.81578">
        <ele>841</ele>
        <time>2018-01-22T18:41:41.000Z</time>
      </trkpt>
      <trkpt lat="45.33974" lon="5.81578">
        <ele>841</ele>
        <time>2018-01-22T18:41:42.000Z</time>
      </trkpt>
      <trkpt lat="45.33974" lon="5.81578">
        <ele>841</ele>
        <time>2018-01-22T18:41:43.000Z</time>
      </trkpt>
      <trkpt lat="45.33955" lon="5.81624">
        <ele>871</ele>
        <time>2018-01-22T18:41:44.000Z</time>
      </trkpt>
      <trkpt lat="45.33955" lon="5.81624">
        <ele>871</ele>
        <time>2018-01-22T18:41:45.000Z</time>
      </trkpt>
      <trkpt lat="45.33955" lon="5.81624">
        <ele>871</ele>
        <time>2018-01-22T18:41:46.000Z</time>
      </trkpt>
      <trkpt lat="45.33963" lon="5.81657">
        <ele>842</ele>
        <time>2018-01-22T18:41:47.000Z</time>
      </trkpt>
      <trkpt lat="45.33963" lon="5.81657">
        <ele>842</ele>
        <time>2018-01-22T18:41:48.000Z</time>
      </trkpt>
      <trkpt lat="45.33963" lon="5.81657">
        <ele>842</ele>
        <time>2018-01-22T18:41:49.000Z</time>
      </trkpt>
      <trkpt lat="45.33989" lon="5.81656">
        <ele>842</ele>
        <time>2018-01-22T18:41:50.000Z</time>
      </trkpt>
      <trkpt lat="45.33989" lon="5.81656">
        <ele>842</ele>
        <time>2018-01-22T18:41:51.000Z</time>
      </trkpt>
      <trkpt lat="45.33989" lon="5.81656">
        <ele>842</ele>
        <time>2018-01-22T18:41:52.000Z</time>
      </trkpt>
      <trkpt lat="45.33993" lon="5.8165">
        <ele>842</ele>
        <time>2018-01-22T18:41:53.000Z</time>
      </trkpt>
      <trkpt lat="45.33993" lon="5.8165">
        <ele>842</ele>
        <time>2018-01-22T18:41:54.000Z</time>
      </trkpt>
      <trkpt lat="45.33993" lon="5.8165">
        <ele>842</ele>
        <time>2018-01-22T18:41:55.000Z</time>
      </trkpt>
      <trkpt lat="45.34003" lon="5.81643">
        <ele>842</ele>
        <time>2018-01-22T18:41:56.000Z</time>
      </trkpt>
      <trkpt lat="45.34003" lon="5.81643">
        <ele>842</ele>
        <time>2018-01-22T18:41:57.000Z</time>
      </trkpt>
      <trkpt lat="45.34003" lon="5.81643">
        <ele>842</ele>
        <time>2018-01-22T18:41:58.000Z</time>
      </trkpt>
      <trkpt lat="45.34002" lon="5.81642">
        <ele>842</ele>
        <time>2018-01-22T18:41:59.000Z</time>
      </trkpt>
      <trkpt lat="45.34002" lon="5.81642">
        <ele>842</ele>
        <time>2018-01-22T18:42:00.000Z</time>
      </trkpt>
      <trkpt lat="45.34002" lon="5.81642">
        <ele>842</ele>
        <time>2018-01-22T18:42:01.000Z</time>
      </trkpt>
      <trkpt lat="45.34014" lon="5.81649">
        <ele>842</ele>
        <time>2018-01-22T18:42:02.000Z</time>
      </trkpt>
      <trkpt lat="45.34014" lon="5.81649">
        <ele>842</ele>
        <time>2018-01-22T18:42:03.000Z</time>
      </trkpt>
      <trkpt lat="45.34014" lon="5.81649">
        <ele>842</ele>
        <time>2018-01-22T18:42:04.000Z</time>
      </trkpt>
      <trkpt lat="45.34056" lon="5.81646">
        <ele>866</ele>
        <time>2018-01-22T18:42:05.000Z</time>
      </trkpt>
      <trkpt lat="45.34056" lon="5.81646">
        <ele>866</ele>
        <time>2018-01-22T18:42:06.000Z</time>
      </trkpt>
      <trkpt lat="45.34056" lon="5.81646">
        <ele>866</ele>
        <time>2018-01-22T18:42:07.000Z</time>
      </trkpt>
      <trkpt lat="45.34057" lon="5.81671">
        <ele>866</ele>
        <time>2018-01-22T18:42:08.000Z</time>
      </trkpt>
      <trkpt lat="45.34057" lon="5.81671">
        <ele>866</ele>
        <time>2018-01-22T18:42:09.000Z</time>
      </trkpt>
      <trkpt lat="45.34057" lon="5.81671">
        <ele>866</ele>
        <time>2018-01-22T18:42:10.000Z</time>
      </trkpt>
      <trkpt lat="45.34053" lon="5.81684">
        <ele>866</ele>
        <time>2018-01-22T18:42:11.000Z</time>
      </trkpt>
      <trkpt lat="45.34053" lon="5.81684">
        <ele>866</ele>
        <time>2018-01-22T18:42:12.000Z</time>
      </trkpt>
      <trkpt lat="45.34053" lon="5.81684">
        <ele>866</ele>
        <time>2018-01-22T18:42:13.000Z</time>
      </trkpt>
      <trkpt lat="45.34057" lon="5.81692">
        <ele>866</ele>
        <time>2018-01-22T18:42:14.000Z</time>
      </trkpt>
      <trkpt lat="45.34057" lon="5.81692">
        <ele>866</ele>
        <time>2018-01-22T18:42:15.000Z</time>
      </trkpt>
      <trkpt lat="45.34057" lon="5.81692">
        <ele>866</ele>
        <time>2018-01-22T18:42:16.000Z</time>
      </trkpt>
      <trkpt lat="45.34085" lon="5.81675">
        <ele>866</ele>
        <time>2018-01-22T18:42:17.000Z</time>
      </trkpt>
      <trkpt lat="45.34085" lon="5.81675">
        <ele>866</ele>
        <time>2018-01-22T18:42:18.000Z</time>
      </trkpt>
      <trkpt lat="45.34085" lon="5.81675">
        <ele>866</ele>
        <time>2018-01-22T18:42:19.000Z</time>
      </trkpt>
      <trkpt lat="45.34098" lon="5.81652">
        <ele>866</ele>
        <time>2018-01-22T18:42:20.000Z</time>
      </trkpt>
      <trkpt lat="45.34098" lon="5.81652">
        <ele>866</ele>
        <time>2018-01-22T18:42:21.000Z</time>
      </trkpt>
      <trkpt lat="45.34098" lon="5.81652">
        <ele>866</ele>
        <time>2018-01-22T18:42:22.000Z</time>
      </trkpt>
      <trkpt lat="45.34105" lon="5.8163">
        <ele>866</ele>
        <time>2018-01-22T18:42:23.000Z</time>
      </trkpt>
      <trkpt lat="45.34105" lon="5.8163">
        <ele>866</ele>
        <time>2018-01-22T18:42:24.000Z</time>
      </trkpt>
      <trkpt lat="45.34105" lon="5.8163">
        <ele>866</ele>
        <time>2018-01-22T18:42:25.000Z</time>
      </trkpt>
      <trkpt lat="45.3412" lon="5.81634">
        <ele>866</ele>
        <time>2018-01-22T18:42:26.000Z</time>
      </trkpt>
      <trkpt lat="45.3412" lon="5.81634">
        <ele>866</ele>
        <time>2018-01-22T18:42:27.000Z</time>
      </trkpt>
      <trkpt lat="45.3412" lon="5.81634">
        <ele>866</ele>
        <time>2018-01-22T18:42:28.000Z</time>
      </trkpt>
      <trkpt lat="45.34134" lon="5.81622">
        <ele>890</ele>
        <time>2018-01-22T18:42:29.000Z</time>
      </trkpt>
      <trkpt lat="45.34134" lon="5.81622">
        <ele>890</ele>
        <time>2018-01-22T18:42:30.000Z</time>
      </trkpt>
      <trkpt lat="45.34134" lon="5.81622">
        <ele>890</ele>
        <time>2018-01-22T18:42:31.000Z</time>
      </trkpt>
      <trkpt lat="45.34135" lon="5.81588">
        <ele>890</ele>
        <time>2018-01-22T18:42:32.000Z</time>
      </trkpt>
      <trkpt lat="45.34135" lon="5.81588">
        <ele>890</ele>
        <time>2018-01-22T18:42:33.000Z</time>
      </trkpt>
      <trkpt lat="45.34135" lon="5.81588">
        <ele>890</ele>
        <time>2018-01-22T18:42:34.000Z</time>
      </trkpt>
      <trkpt lat="45.3414" lon="5.81592">
        <ele>890</ele>
        <time>2018-01-22T18:42:35.000Z</time>
      </trkpt>
      <trkpt lat="45.3414" lon="5.81592">
        <ele>890</ele>
        <time>2018-01-22T18:42:36.000Z</time>
      </trkpt>
      <trkpt lat="45.3414" lon="5.81592">
        <ele>890</ele>
        <time>2018-01-22T18:42:37.000Z</time>
      </trkpt>
      <trkpt lat="45.3414" lon="5.81609">
        <ele>890</ele>
        <time>2018-01-22T18:42:38.000Z</time>
      </trkpt>
      <trkpt lat="45.3414" lon="5.81609">
        <ele>890</ele>
        <time>2018-01-22T18:42:39.000Z</time>
      </trkpt>
      <trkpt lat="45.3414" lon="5.81609">
        <ele>890</ele>
        <time>2018-01-22T18:42:40.000Z</time>
      </trkpt>
      <trkpt lat="45.3416" lon="5.81619">
        <ele>890</ele>
        <time>2018-01-22T18:42:41.000Z</time>
      </trkpt>
      <trkpt lat="45.3416" lon="5.81619">
        <ele>890</ele>
        <time>2018-01-22T18:42:42.000Z</time>
      </trkpt>
      <trkpt lat="45.3416" lon="5.81619">
        <ele>890</ele>
        <time>2018-01-22T18:42:43.000Z</time>
      </trkpt>
      <trkpt lat="45.34131" lon="5.81729">
        <ele>896</ele>
        <time>2018-01-22T18:42:44.000Z</time>
      </trkpt>
    </trkseg>
  </trk>
</gpx>